Time,TemperatureF,DewpointF,PressureIn,WindDirection,WindDirectionDegrees,WindSpeedMPH,WindSpeedGustMPH,Humidity,HourlyPrecipIn,Conditions,Clouds,dailyrainin,SoftwareType,DateUTC
2013-03-29 00:02:00,32.4,14.9,0.00,SSE,157,3.1,3.1,48,0.00,,---,0.00,VWS V14.00,2013-03-29 06:02:00,
2013-03-29 00:03:00,32.4,14.9,0.00,ESE,114,3.6,3.6,48,0.00,,---,0.00,VWS V14.00,2013-03-29 06:03:00,
2013-03-29 00:04:00,32.4,15.4,0.00,SE,138,3.6,3.6,49,0.00,,---,0.00,VWS V14.00,2013-03-29 06:04:00,
2013-03-29 00:05:00,32.4,15.4,0.00,SSE,156,0.0,0.0,49,0.00,,---,0.00,VWS V14.00,2013-03-29 06:05:00,
2013-03-29 00:07:00,32.4,15.4,0.00,ESE,106,2.7,3.1,49,0.00,,---,0.00,VWS V14.00,2013-03-29 06:07:00,
2013-03-29 00:08:00,32.4,15.4,0.00,ESE,110,0.0,2.7,49,0.00,,---,0.00,VWS V14.00,2013-03-29 06:08:00,
2013-03-29 00:09:00,32.4,15.4,0.00,East,101,3.1,3.1,49,0.00,,---,0.00,VWS V14.00,2013-03-29 06:09:00,
2013-03-29 00:10:00,32.4,15.8,0.00,ESE,119,3.6,3.6,50,0.00,,---,0.00,VWS V14.00,2013-03-29 06:10:00,
2013-03-29 00:12:00,32.2,15.6,0.00,SE,133,0.0,0.0,50,0.00,,---,0.00,VWS V14.00,2013-03-29 06:12:00,
2013-03-29 00:13:00,32.2,15.6,0.00,SE,134,0.0,0.0,50,0.00,,---,0.00,VWS V14.00,2013-03-29 06:13:00,
2013-03-29 00:14:00,32.2,15.6,0.00,SE,134,0.0,0.0,50,0.00,,---,0.00,VWS V14.00,2013-03-29 06:14:00,
2013-03-29 00:15:00,32.2,15.6,0.00,SE,136,0.0,0.0,50,0.00,,---,0.00,VWS V14.00,2013-03-29 06:15:00,
2013-03-29 00:17:00,32.2,15.6,0.00,East,96,4.9,6.3,50,0.00,,---,0.00,VWS V14.00,2013-03-29 06:17:00,
2013-03-29 00:19:00,32.2,15.6,0.00,ESE,116,0.0,0.0,50,0.00,,---,0.00,VWS V14.00,2013-03-29 06:19:00,
2013-03-29 00:20:00,32.2,15.6,0.00,ESE,111,0.0,0.0,50,0.00,,---,0.00,VWS V14.00,2013-03-29 06:20:00,
2013-03-29 00:23:00,32.2,15.6,0.00,ESE,109,0.0,0.0,50,0.00,,---,0.00,VWS V14.00,2013-03-29 06:23:00,
2013-03-29 00:24:00,32.2,15.6,0.00,ESE,113,0.0,0.0,50,0.00,,---,0.00,VWS V14.00,2013-03-29 06:24:00,
2013-03-29 00:25:00,32.2,15.6,0.00,ESE,112,0.0,0.0,50,0.00,,---,0.00,VWS V14.00,2013-03-29 06:25:00,
2013-03-29 00:28:00,32.2,15.6,0.00,ESE,112,0.0,0.0,50,0.00,,---,0.00,VWS V14.00,2013-03-29 06:28:00,
2013-03-29 00:29:00,32.2,15.6,0.00,SSE,152,0.0,0.0,50,0.00,,---,0.00,VWS V14.00,2013-03-29 06:29:00,
2013-03-29 00:30:00,32.2,15.6,0.00,SE,144,0.0,0.0,50,0.00,,---,0.00,VWS V14.00,2013-03-29 06:30:00,
2013-03-29 00:33:00,32.2,15.6,0.00,SSE,151,0.0,0.0,50,0.00,,---,0.00,VWS V14.00,2013-03-29 06:33:00,
2013-03-29 00:34:00,32.2,16.1,0.00,SSE,153,0.0,0.0,51,0.00,,---,0.00,VWS V14.00,2013-03-29 06:34:00,
2013-03-29 00:35:00,32.2,16.1,0.00,SSE,150,0.0,0.0,51,0.00,,---,0.00,VWS V14.00,2013-03-29 06:35:00,
2013-03-29 00:38:00,32.0,15.5,0.00,SSE,150,0.0,0.0,50,0.00,,---,0.00,VWS V14.00,2013-03-29 06:38:00,
2013-03-29 00:39:00,32.0,15.5,0.00,SSE,150,0.0,0.0,50,0.00,,---,0.00,VWS V14.00,2013-03-29 06:39:00,
2013-03-29 00:40:00,32.0,15.5,0.00,SSE,150,0.0,0.0,50,0.00,,---,0.00,VWS V14.00,2013-03-29 06:40:00,
2013-03-29 00:43:00,32.0,15.5,0.00,SSE,151,0.0,0.0,50,0.00,,---,0.00,VWS V14.00,2013-03-29 06:43:00,
2013-03-29 00:44:00,32.0,15.5,0.00,SSE,150,0.0,0.0,50,0.00,,---,0.00,VWS V14.00,2013-03-29 06:44:00,
2013-03-29 00:46:00,32.0,15.5,0.00,SSE,154,0.0,0.0,50,0.00,,---,0.00,VWS V14.00,2013-03-29 06:46:00,
2013-03-29 00:48:00,32.0,15.5,0.00,ESE,117,0.0,3.1,50,0.00,,---,0.00,VWS V14.00,2013-03-29 06:48:00,
2013-03-29 00:49:00,31.8,15.3,0.00,ESE,120,0.0,0.0,50,0.00,,---,0.00,VWS V14.00,2013-03-29 06:49:00,
2013-03-29 00:50:00,31.8,15.3,0.00,SE,125,0.0,0.0,50,0.00,,---,0.00,VWS V14.00,2013-03-29 06:50:00,
2013-03-29 00:51:00,31.8,15.3,0.00,SE,125,0.0,0.0,50,0.00,,---,0.00,VWS V14.00,2013-03-29 06:51:00,
2013-03-29 00:53:00,31.8,15.8,0.00,SE,125,0.0,0.0,51,0.00,,---,0.00,VWS V14.00,2013-03-29 06:53:00,
2013-03-29 00:54:00,31.8,15.3,0.00,SE,125,0.0,0.0,50,0.00,,---,0.00,VWS V14.00,2013-03-29 06:54:00,
2013-03-29 00:55:00,31.8,15.3,0.00,SE,125,0.0,0.0,50,0.00,,---,0.00,VWS V14.00,2013-03-29 06:55:00,
2013-03-29 00:56:00,31.8,15.3,0.00,SE,125,0.0,0.0,50,0.00,,---,0.00,VWS V14.00,2013-03-29 06:56:00,
2013-03-29 00:58:00,31.8,15.3,0.00,SE,125,0.0,0.0,50,0.00,,---,0.00,VWS V14.00,2013-03-29 06:58:00,
2013-03-29 00:59:00,31.6,15.1,0.00,SE,125,0.0,0.0,50,0.00,,---,0.00,VWS V14.00,2013-03-29 06:59:00,
2013-03-29 01:00:00,31.6,15.1,0.00,SE,125,0.0,0.0,50,0.00,,---,0.00,VWS V14.00,2013-03-29 07:00:00,
2013-03-29 01:01:00,31.6,15.1,0.00,SE,125,0.0,0.0,50,0.00,,---,0.00,VWS V14.00,2013-03-29 07:01:00,
2013-03-29 01:03:00,31.6,15.6,0.00,SE,125,0.0,0.0,51,0.00,,---,0.00,VWS V14.00,2013-03-29 07:03:00,
2013-03-29 01:04:00,31.6,15.6,0.00,SE,125,0.0,0.0,51,0.00,,---,0.00,VWS V14.00,2013-03-29 07:04:00,
2013-03-29 01:05:00,31.6,15.6,0.00,SE,125,0.0,0.0,51,0.00,,---,0.00,VWS V14.00,2013-03-29 07:05:00,
2013-03-29 01:06:00,31.6,15.6,0.00,SE,125,0.0,0.0,51,0.00,,---,0.00,VWS V14.00,2013-03-29 07:06:00,
2013-03-29 01:08:00,31.6,15.6,0.00,SE,125,0.0,0.0,51,0.00,,---,0.00,VWS V14.00,2013-03-29 07:08:00,
2013-03-29 01:10:00,31.6,15.6,0.00,SE,125,0.0,0.0,51,0.00,,---,0.00,VWS V14.00,2013-03-29 07:10:00,
2013-03-29 01:11:00,31.6,15.6,0.00,SE,125,0.0,0.0,51,0.00,,---,0.00,VWS V14.00,2013-03-29 07:11:00,
2013-03-29 01:13:00,31.5,15.4,0.00,SE,125,0.0,0.0,51,0.00,,---,0.00,VWS V14.00,2013-03-29 07:13:00,
2013-03-29 01:15:00,31.5,15.0,0.00,SE,124,0.0,0.0,50,0.00,,---,0.00,VWS V14.00,2013-03-29 07:15:00,
2013-03-29 01:16:00,31.5,15.0,0.00,SE,125,0.0,0.0,50,0.00,,---,0.00,VWS V14.00,2013-03-29 07:16:00,
2013-03-29 01:18:00,31.5,15.0,0.00,SE,125,0.0,0.0,50,0.00,,---,0.00,VWS V14.00,2013-03-29 07:18:00,
2013-03-29 01:20:00,31.5,15.4,0.00,SE,125,0.0,0.0,51,0.00,,---,0.00,VWS V14.00,2013-03-29 07:20:00,
2013-03-29 01:21:00,31.5,15.4,0.00,SE,125,0.0,0.0,51,0.00,,---,0.00,VWS V14.00,2013-03-29 07:21:00,
2013-03-29 01:24:00,31.3,15.3,0.00,SE,125,0.0,0.0,51,0.00,,---,0.00,VWS V14.00,2013-03-29 07:24:00,
2013-03-29 01:25:00,31.3,15.3,0.00,SE,125,0.0,0.0,51,0.00,,---,0.00,VWS V14.00,2013-03-29 07:25:00,
2013-03-29 01:26:00,31.3,15.3,0.00,SE,125,0.0,0.0,51,0.00,,---,0.00,VWS V14.00,2013-03-29 07:26:00,
2013-03-29 01:29:00,31.3,15.3,0.00,SE,125,0.0,0.0,51,0.00,,---,0.00,VWS V14.00,2013-03-29 07:29:00,
2013-03-29 01:30:00,31.3,15.3,0.00,SE,125,0.0,0.0,51,0.00,,---,0.00,VWS V14.00,2013-03-29 07:30:00,
2013-03-29 01:31:00,31.3,15.3,0.00,SE,125,0.0,0.0,51,0.00,,---,0.00,VWS V14.00,2013-03-29 07:31:00,
2013-03-29 01:34:00,31.1,15.1,0.00,SE,125,0.0,0.0,51,0.00,,---,0.00,VWS V14.00,2013-03-29 07:34:00,
2013-03-29 01:35:00,31.1,15.1,0.00,SE,125,0.0,0.0,51,0.00,,---,0.00,VWS V14.00,2013-03-29 07:35:00,
2013-03-29 01:37:00,31.1,15.1,0.00,SE,125,0.0,0.0,51,0.00,,---,0.00,VWS V14.00,2013-03-29 07:37:00,
2013-03-29 01:39:00,31.1,15.1,0.00,SE,125,0.0,0.0,51,0.00,,---,0.00,VWS V14.00,2013-03-29 07:39:00,
2013-03-29 01:40:00,31.1,15.1,0.00,SE,125,0.0,0.0,51,0.00,,---,0.00,VWS V14.00,2013-03-29 07:40:00,
2013-03-29 01:41:00,31.1,15.1,0.00,SE,125,0.0,0.0,51,0.00,,---,0.00,VWS V14.00,2013-03-29 07:41:00,
2013-03-29 01:42:00,31.1,15.1,0.00,SE,125,0.0,0.0,51,0.00,,---,0.00,VWS V14.00,2013-03-29 07:42:00,
2013-03-29 01:44:00,31.1,15.1,0.00,SE,125,0.0,0.0,51,0.00,,---,0.00,VWS V14.00,2013-03-29 07:44:00,
2013-03-29 01:45:00,30.9,14.9,0.00,SE,125,0.0,0.0,51,0.00,,---,0.00,VWS V14.00,2013-03-29 07:45:00,
2013-03-29 01:46:00,30.9,14.9,0.00,SE,125,0.0,0.0,51,0.00,,---,0.00,VWS V14.00,2013-03-29 07:46:00,
2013-03-29 01:47:00,30.9,14.9,0.00,SE,125,0.0,0.0,51,0.00,,---,0.00,VWS V14.00,2013-03-29 07:47:00,
2013-03-29 01:49:00,30.9,14.9,0.00,SE,125,0.0,0.0,51,0.00,,---,0.00,VWS V14.00,2013-03-29 07:49:00,
2013-03-29 01:50:00,30.9,14.9,0.00,SE,125,0.0,0.0,51,0.00,,---,0.00,VWS V14.00,2013-03-29 07:50:00,
2013-03-29 01:51:00,30.9,14.9,0.00,SSE,147,0.0,0.0,51,0.00,,---,0.00,VWS V14.00,2013-03-29 07:51:00,
2013-03-29 01:52:00,30.9,14.9,0.00,SSE,147,0.0,0.0,51,0.00,,---,0.00,VWS V14.00,2013-03-29 07:52:00,
2013-03-29 01:54:00,30.9,14.9,0.00,SSE,147,0.0,0.0,51,0.00,,---,0.00,VWS V14.00,2013-03-29 07:54:00,
2013-03-29 01:55:00,30.7,14.8,0.00,SSE,147,0.0,0.0,51,0.00,,---,0.00,VWS V14.00,2013-03-29 07:55:00,
2013-03-29 01:56:00,30.7,14.8,0.00,SE,145,0.0,0.0,51,0.00,,---,0.00,VWS V14.00,2013-03-29 07:56:00,
2013-03-29 01:57:00,30.7,14.8,0.00,SSE,147,0.0,0.0,51,0.00,,---,0.00,VWS V14.00,2013-03-29 07:57:00,
2013-03-29 01:59:00,30.7,14.8,0.00,SE,146,0.0,0.0,51,0.00,,---,0.00,VWS V14.00,2013-03-29 07:59:00,
2013-03-29 02:01:00,30.7,14.8,0.00,SSE,147,0.0,0.0,51,0.00,,---,0.00,VWS V14.00,2013-03-29 08:01:00,
2013-03-29 02:02:00,30.7,14.8,0.00,SSE,147,0.0,0.0,51,0.00,,---,0.00,VWS V14.00,2013-03-29 08:02:00,
2013-03-29 02:05:00,30.7,14.8,0.00,SE,144,0.0,0.0,51,0.00,,---,0.00,VWS V14.00,2013-03-29 08:05:00,
2013-03-29 02:06:00,30.7,14.8,0.00,SSE,147,0.0,0.0,51,0.00,,---,0.00,VWS V14.00,2013-03-29 08:06:00,
2013-03-29 02:07:00,30.6,14.6,0.00,SSE,147,0.0,0.0,51,0.00,,---,0.00,VWS V14.00,2013-03-29 08:07:00,
2013-03-29 02:10:00,30.6,14.6,0.00,SSE,147,0.0,0.0,51,0.00,,---,0.00,VWS V14.00,2013-03-29 08:10:00,
2013-03-29 02:11:00,30.6,14.6,0.00,SSE,147,0.0,0.0,51,0.00,,---,0.00,VWS V14.00,2013-03-29 08:11:00,
2013-03-29 02:12:00,30.6,15.0,0.00,SSE,147,0.0,0.0,52,0.00,,---,0.00,VWS V14.00,2013-03-29 08:12:00,
2013-03-29 02:15:00,30.6,15.0,0.00,SSE,147,0.0,0.0,52,0.00,,---,0.00,VWS V14.00,2013-03-29 08:15:00,
2013-03-29 02:16:00,30.6,15.0,0.00,SSE,147,0.0,0.0,52,0.00,,---,0.00,VWS V14.00,2013-03-29 08:16:00,
2013-03-29 02:17:00,30.6,15.0,0.00,SSE,147,0.0,0.0,52,0.00,,---,0.00,VWS V14.00,2013-03-29 08:17:00,
2013-03-29 02:18:00,30.6,15.0,0.00,SSE,147,0.0,0.0,52,0.00,,---,0.00,VWS V14.00,2013-03-29 08:18:00,
2013-03-29 02:21:00,30.4,14.9,0.00,SE,145,0.0,0.0,52,0.00,,---,0.00,VWS V14.00,2013-03-29 08:21:00,
2013-03-29 02:23:00,30.4,14.9,0.00,SSE,149,0.0,0.0,52,0.00,,---,0.00,VWS V14.00,2013-03-29 08:23:00,
2013-03-29 02:26:00,30.4,14.9,0.00,SSE,149,0.0,0.0,52,0.00,,---,0.00,VWS V14.00,2013-03-29 08:26:00,
2013-03-29 02:27:00,30.4,14.9,0.00,SSE,149,0.0,0.0,52,0.00,,---,0.00,VWS V14.00,2013-03-29 08:27:00,
2013-03-29 02:28:00,30.4,14.9,0.00,SSE,148,0.0,0.0,52,0.00,,---,0.00,VWS V14.00,2013-03-29 08:28:00,
2013-03-29 02:31:00,30.2,14.7,0.00,SSE,149,0.0,0.0,52,0.00,,---,0.00,VWS V14.00,2013-03-29 08:31:00,
2013-03-29 02:32:00,30.2,14.7,0.00,SE,142,0.0,0.0,52,0.00,,---,0.00,VWS V14.00,2013-03-29 08:32:00,
2013-03-29 02:33:00,30.2,14.7,0.00,SE,143,0.0,0.0,52,0.00,,---,0.00,VWS V14.00,2013-03-29 08:33:00,
2013-03-29 02:36:00,30.2,14.7,0.00,SE,142,0.0,0.0,52,0.00,,---,0.00,VWS V14.00,2013-03-29 08:36:00,
2013-03-29 02:37:00,30.2,14.7,0.00,SE,143,0.0,0.0,52,0.00,,---,0.00,VWS V14.00,2013-03-29 08:37:00,
2013-03-29 02:38:00,30.2,14.7,0.00,SE,140,0.0,0.0,52,0.00,,---,0.00,VWS V14.00,2013-03-29 08:38:00,
2013-03-29 02:41:00,30.2,14.7,0.00,SE,143,0.0,0.0,52,0.00,,---,0.00,VWS V14.00,2013-03-29 08:41:00,
2013-03-29 02:42:00,30.2,14.7,0.00,SE,142,0.0,0.0,52,0.00,,---,0.00,VWS V14.00,2013-03-29 08:42:00,
2013-03-29 02:43:00,30.2,14.7,0.00,SE,143,0.0,0.0,52,0.00,,---,0.00,VWS V14.00,2013-03-29 08:43:00,
2013-03-29 02:44:00,30.2,14.7,0.00,SE,143,0.0,0.0,52,0.00,,---,0.00,VWS V14.00,2013-03-29 08:44:00,
2013-03-29 02:47:00,30.0,14.5,0.00,SE,143,0.0,0.0,52,0.00,,---,0.00,VWS V14.00,2013-03-29 08:47:00,
2013-03-29 02:48:00,30.0,14.5,0.00,SE,142,0.0,0.0,52,0.00,,---,0.00,VWS V14.00,2013-03-29 08:48:00,
2013-03-29 02:49:00,30.0,14.5,0.00,SE,143,0.0,0.0,52,0.00,,---,0.00,VWS V14.00,2013-03-29 08:49:00,
2013-03-29 02:52:00,30.0,14.5,0.00,SE,138,0.0,0.0,52,0.00,,---,0.00,VWS V14.00,2013-03-29 08:52:00,
2013-03-29 02:53:00,30.0,14.5,0.00,SE,139,0.0,0.0,52,0.00,,---,0.00,VWS V14.00,2013-03-29 08:53:00,
2013-03-29 02:54:00,30.0,14.5,0.00,SE,141,0.0,0.0,52,0.00,,---,0.00,VWS V14.00,2013-03-29 08:54:00,
2013-03-29 02:57:00,30.0,14.5,0.00,SE,143,0.0,0.0,52,0.00,,---,0.00,VWS V14.00,2013-03-29 08:57:00,
2013-03-29 02:58:00,30.0,14.5,0.00,SE,143,0.0,0.0,52,0.00,,---,0.00,VWS V14.00,2013-03-29 08:58:00,
2013-03-29 02:59:00,30.0,14.5,0.00,SE,143,0.0,0.0,52,0.00,,---,0.00,VWS V14.00,2013-03-29 08:59:00,
2013-03-29 03:03:00,29.8,14.4,0.00,SE,143,0.0,0.0,52,0.00,,---,0.00,VWS V14.00,2013-03-29 09:03:00,
2013-03-29 03:04:00,29.8,14.4,0.00,SE,141,0.0,0.0,52,0.00,,---,0.00,VWS V14.00,2013-03-29 09:04:00,
2013-03-29 03:08:00,29.8,14.4,0.00,SE,143,0.0,0.0,52,0.00,,---,0.00,VWS V14.00,2013-03-29 09:08:00,
2013-03-29 03:10:00,29.8,14.4,0.00,SE,143,0.0,0.0,52,0.00,,---,0.00,VWS V14.00,2013-03-29 09:10:00,
2013-03-29 03:13:00,29.7,14.2,0.00,SE,143,0.0,0.0,52,0.00,,---,0.00,VWS V14.00,2013-03-29 09:13:00,
2013-03-29 03:15:00,29.7,14.2,0.00,SE,143,0.0,0.0,52,0.00,,---,0.00,VWS V14.00,2013-03-29 09:15:00,
2013-03-29 03:18:00,29.7,14.6,0.00,SE,143,0.0,0.0,53,0.00,,---,0.00,VWS V14.00,2013-03-29 09:18:00,
2013-03-29 03:20:00,29.7,14.2,0.00,SE,143,0.0,0.0,52,0.00,,---,0.00,VWS V14.00,2013-03-29 09:20:00,
2013-03-29 03:23:00,29.5,14.0,0.00,SE,143,0.0,0.0,52,0.00,,---,0.00,VWS V14.00,2013-03-29 09:23:00,
2013-03-29 03:25:00,29.5,14.0,0.00,SE,143,0.0,0.0,52,0.00,,---,0.00,VWS V14.00,2013-03-29 09:25:00,
2013-03-29 03:28:00,29.5,14.5,0.00,SE,143,0.0,0.0,53,0.00,,---,0.00,VWS V14.00,2013-03-29 09:28:00,
2013-03-29 03:29:00,29.5,14.5,0.00,SE,143,0.0,0.0,53,0.00,,---,0.00,VWS V14.00,2013-03-29 09:29:00,
2013-03-29 03:31:00,29.5,14.5,0.00,SE,142,0.0,0.0,53,0.00,,---,0.00,VWS V14.00,2013-03-29 09:31:00,
2013-03-29 03:33:00,29.5,14.5,0.00,WNW,285,0.0,0.0,53,0.00,,---,0.00,VWS V14.00,2013-03-29 09:33:00,
2013-03-29 03:34:00,29.5,14.5,0.00,WNW,283,0.0,0.0,53,0.00,,---,0.00,VWS V14.00,2013-03-29 09:34:00,
2013-03-29 03:36:00,29.5,14.5,0.00,WNW,285,0.0,0.0,53,0.00,,---,0.00,VWS V14.00,2013-03-29 09:36:00,
2013-03-29 03:38:00,29.3,14.3,0.00,West,276,0.0,0.0,53,0.00,,---,0.00,VWS V14.00,2013-03-29 09:38:00,
2013-03-29 03:39:00,29.3,14.3,0.00,WNW,284,0.0,0.0,53,0.00,,---,0.00,VWS V14.00,2013-03-29 09:39:00,
2013-03-29 03:41:00,29.3,14.3,0.00,WNW,285,0.0,0.0,53,0.00,,---,0.00,VWS V14.00,2013-03-29 09:41:00,
2013-03-29 03:44:00,29.3,14.3,0.00,WNW,284,0.0,0.0,53,0.00,,---,0.00,VWS V14.00,2013-03-29 09:44:00,
2013-03-29 03:46:00,29.3,14.3,0.00,WNW,286,0.0,0.0,53,0.00,,---,0.00,VWS V14.00,2013-03-29 09:46:00,
2013-03-29 03:49:00,29.3,14.3,0.00,WNW,286,0.0,0.0,53,0.00,,---,0.00,VWS V14.00,2013-03-29 09:49:00,
2013-03-29 03:52:00,29.3,14.3,0.00,West,277,0.0,0.0,53,0.00,,---,0.00,VWS V14.00,2013-03-29 09:52:00,
2013-03-29 03:54:00,29.1,14.6,0.00,West,276,0.0,0.0,54,0.00,,---,0.00,VWS V14.00,2013-03-29 09:54:00,
2013-03-29 03:57:00,29.1,14.6,0.00,WNW,286,0.0,0.0,54,0.00,,---,0.00,VWS V14.00,2013-03-29 09:57:00,
2013-03-29 03:59:00,29.1,14.6,0.00,WNW,287,0.0,0.0,54,0.00,,---,0.00,VWS V14.00,2013-03-29 09:59:00,
2013-03-29 04:02:00,29.1,14.6,0.00,WNW,286,0.0,0.0,54,0.00,,---,0.00,VWS V14.00,2013-03-29 10:02:00,
2013-03-29 04:04:00,29.1,14.6,0.00,West,279,0.0,0.0,54,0.00,,---,0.00,VWS V14.00,2013-03-29 10:04:00,
2013-03-29 04:07:00,28.9,14.4,0.00,West,276,0.0,0.0,54,0.00,,---,0.00,VWS V14.00,2013-03-29 10:07:00,
2013-03-29 04:09:00,28.9,14.4,0.00,WNW,286,0.0,0.0,54,0.00,,---,0.00,VWS V14.00,2013-03-29 10:09:00,
2013-03-29 04:12:00,28.9,14.4,0.00,WNW,287,0.0,0.0,54,0.00,,---,0.00,VWS V14.00,2013-03-29 10:12:00,
2013-03-29 04:14:00,28.9,14.4,0.00,WNW,284,0.0,0.0,54,0.00,,---,0.00,VWS V14.00,2013-03-29 10:14:00,
2013-03-29 04:15:00,28.9,14.4,0.00,WNW,287,0.0,0.0,54,0.00,,---,0.00,VWS V14.00,2013-03-29 10:15:00,
2013-03-29 04:17:00,28.9,14.4,0.00,WNW,286,0.0,0.0,54,0.00,,---,0.00,VWS V14.00,2013-03-29 10:17:00,
2013-03-29 04:19:00,28.9,14.4,0.00,WNW,286,0.0,0.0,54,0.00,,---,0.00,VWS V14.00,2013-03-29 10:19:00,
2013-03-29 04:20:00,28.9,14.4,0.00,West,276,0.0,0.0,54,0.00,,---,0.00,VWS V14.00,2013-03-29 10:20:00,
2013-03-29 04:22:00,28.8,14.2,0.00,WNW,286,0.0,0.0,54,0.00,,---,0.00,VWS V14.00,2013-03-29 10:22:00,
2013-03-29 04:24:00,28.8,14.2,0.00,WNW,286,0.0,0.0,54,0.00,,---,0.00,VWS V14.00,2013-03-29 10:24:00,
2013-03-29 04:25:00,28.8,14.2,0.00,WNW,287,0.0,0.0,54,0.00,,---,0.00,VWS V14.00,2013-03-29 10:25:00,
2013-03-29 04:27:00,28.8,14.2,0.00,WNW,287,0.0,0.0,54,0.00,,---,0.00,VWS V14.00,2013-03-29 10:27:00,
2013-03-29 04:29:00,28.8,14.2,0.00,WNW,286,0.0,0.0,54,0.00,,---,0.00,VWS V14.00,2013-03-29 10:29:00,
2013-03-29 04:30:00,28.8,14.2,0.00,WNW,286,0.0,0.0,54,0.00,,---,0.00,VWS V14.00,2013-03-29 10:30:00,
2013-03-29 04:33:00,28.8,14.2,0.00,WNW,285,0.0,0.0,54,0.00,,---,0.00,VWS V14.00,2013-03-29 10:33:00,
2013-03-29 04:34:00,28.8,14.2,0.00,WNW,285,0.0,0.0,54,0.00,,---,0.00,VWS V14.00,2013-03-29 10:34:00,
2013-03-29 04:35:00,28.8,14.2,0.00,WNW,285,0.0,0.0,54,0.00,,---,0.00,VWS V14.00,2013-03-29 10:35:00,
2013-03-29 04:38:00,28.8,14.2,0.00,WNW,285,0.0,0.0,54,0.00,,---,0.00,VWS V14.00,2013-03-29 10:38:00,
2013-03-29 04:39:00,28.8,14.2,0.00,WNW,286,0.0,0.0,54,0.00,,---,0.00,VWS V14.00,2013-03-29 10:39:00,
2013-03-29 04:40:00,28.8,14.2,0.00,WNW,285,0.0,0.0,54,0.00,,---,0.00,VWS V14.00,2013-03-29 10:40:00,
2013-03-29 04:43:00,28.6,14.1,0.00,WNW,285,0.0,0.0,54,0.00,,---,0.00,VWS V14.00,2013-03-29 10:43:00,
2013-03-29 04:45:00,28.6,14.1,0.00,WNW,286,0.0,0.0,54,0.00,,---,0.00,VWS V14.00,2013-03-29 10:45:00,
2013-03-29 04:46:00,28.6,14.1,0.00,WNW,285,0.0,0.0,54,0.00,,---,0.00,VWS V14.00,2013-03-29 10:46:00,
2013-03-29 04:48:00,28.6,14.1,0.00,WNW,285,0.0,0.0,54,0.00,,---,0.00,VWS V14.00,2013-03-29 10:48:00,
2013-03-29 04:50:00,28.6,14.1,0.00,WNW,285,0.0,0.0,54,0.00,,---,0.00,VWS V14.00,2013-03-29 10:50:00,
2013-03-29 04:51:00,28.6,14.1,0.00,WNW,289,3.1,3.1,54,0.00,,---,0.00,VWS V14.00,2013-03-29 10:51:00,
2013-03-29 04:53:00,28.6,14.1,0.00,WNW,294,3.1,3.6,54,0.00,,---,0.00,VWS V14.00,2013-03-29 10:53:00,
2013-03-29 04:55:00,28.6,14.1,0.00,WNW,294,0.0,2.2,54,0.00,,---,0.00,VWS V14.00,2013-03-29 10:55:00,
2013-03-29 04:56:00,28.6,14.1,0.00,WNW,295,0.0,0.0,54,0.00,,---,0.00,VWS V14.00,2013-03-29 10:56:00,
2013-03-29 04:59:00,28.6,14.1,0.00,WNW,295,0.0,0.0,54,0.00,,---,0.00,VWS V14.00,2013-03-29 10:59:00,
2013-03-29 05:00:00,28.6,14.1,0.00,WNW,295,0.0,0.0,54,0.00,,---,0.00,VWS V14.00,2013-03-29 11:00:00,
2013-03-29 05:02:00,28.6,14.1,0.00,WNW,295,0.0,0.0,54,0.00,,---,0.00,VWS V14.00,2013-03-29 11:02:00,
2013-03-29 05:04:00,28.6,14.1,0.00,WNW,294,0.0,0.0,54,0.00,,---,0.00,VWS V14.00,2013-03-29 11:04:00,
2013-03-29 05:05:00,28.6,14.1,0.00,WNW,295,0.0,0.0,54,0.00,,---,0.00,VWS V14.00,2013-03-29 11:05:00,
2013-03-29 05:07:00,28.6,14.1,0.00,WNW,295,0.0,0.0,54,0.00,,---,0.00,VWS V14.00,2013-03-29 11:07:00,
2013-03-29 05:09:00,28.6,14.1,0.00,WNW,292,0.0,0.0,54,0.00,,---,0.00,VWS V14.00,2013-03-29 11:09:00,
2013-03-29 05:10:00,28.6,14.1,0.00,WNW,294,0.0,0.0,54,0.00,,---,0.00,VWS V14.00,2013-03-29 11:10:00,
2013-03-29 05:12:00,28.6,14.1,0.00,WNW,292,0.0,0.0,54,0.00,,---,0.00,VWS V14.00,2013-03-29 11:12:00,
2013-03-29 05:14:00,28.6,14.1,0.00,WNW,295,0.0,0.0,54,0.00,,---,0.00,VWS V14.00,2013-03-29 11:14:00,
2013-03-29 05:15:00,28.6,14.1,0.00,WNW,295,0.0,0.0,54,0.00,,---,0.00,VWS V14.00,2013-03-29 11:15:00,
2013-03-29 05:17:00,28.6,13.6,0.00,WNW,287,0.0,0.0,53,0.00,,---,0.00,VWS V14.00,2013-03-29 11:17:00,
2013-03-29 05:19:00,28.6,13.6,0.00,WNW,294,0.0,0.0,53,0.00,,---,0.00,VWS V14.00,2013-03-29 11:19:00,
2013-03-29 05:20:00,28.6,13.6,0.00,WNW,287,0.0,0.0,53,0.00,,---,0.00,VWS V14.00,2013-03-29 11:20:00,
2013-03-29 05:22:00,28.6,13.6,0.00,WNW,295,0.0,0.0,53,0.00,,---,0.00,VWS V14.00,2013-03-29 11:22:00,
2013-03-29 05:24:00,28.6,13.6,0.00,ENE,58,3.1,3.1,53,0.00,,---,0.00,VWS V14.00,2013-03-29 11:24:00,
2013-03-29 05:25:00,28.6,13.6,0.00,ENE,60,0.0,0.0,53,0.00,,---,0.00,VWS V14.00,2013-03-29 11:25:00,
2013-03-29 05:27:00,28.6,13.6,0.00,ENE,59,0.0,0.0,53,0.00,,---,0.00,VWS V14.00,2013-03-29 11:27:00,
2013-03-29 05:29:00,28.6,13.6,0.00,ENE,60,0.0,0.0,53,0.00,,---,0.00,VWS V14.00,2013-03-29 11:29:00,
2013-03-29 05:30:00,28.6,13.6,0.00,ENE,58,0.0,0.0,53,0.00,,---,0.00,VWS V14.00,2013-03-29 11:30:00,
2013-03-29 05:31:00,28.6,13.6,0.00,ENE,58,0.0,0.0,53,0.00,,---,0.00,VWS V14.00,2013-03-29 11:31:00,
2013-03-29 05:32:00,28.6,13.6,0.00,ENE,60,0.0,0.0,53,0.00,,---,0.00,VWS V14.00,2013-03-29 11:32:00,
2013-03-29 05:34:00,28.6,13.6,0.00,ENE,60,0.0,0.0,53,0.00,,---,0.00,VWS V14.00,2013-03-29 11:34:00,
2013-03-29 05:35:00,28.6,13.6,0.00,ENE,60,0.0,0.0,53,0.00,,---,0.00,VWS V14.00,2013-03-29 11:35:00,
2013-03-29 05:36:00,28.6,13.6,0.00,ENE,58,0.0,0.0,53,0.00,,---,0.00,VWS V14.00,2013-03-29 11:36:00,
2013-03-29 05:37:00,28.6,13.6,0.00,ENE,60,0.0,0.0,53,0.00,,---,0.00,VWS V14.00,2013-03-29 11:37:00,
2013-03-29 05:39:00,28.4,13.5,0.00,ENE,60,0.0,0.0,53,0.00,,---,0.00,VWS V14.00,2013-03-29 11:39:00,
2013-03-29 05:40:00,28.4,13.5,0.00,ENE,60,0.0,0.0,53,0.00,,---,0.00,VWS V14.00,2013-03-29 11:40:00,
2013-03-29 05:41:00,28.4,13.5,0.00,ENE,58,0.0,0.0,53,0.00,,---,0.00,VWS V14.00,2013-03-29 11:41:00,
2013-03-29 05:42:00,28.4,13.5,0.00,ENE,60,0.0,0.0,53,0.00,,---,0.00,VWS V14.00,2013-03-29 11:42:00,
2013-03-29 05:44:00,28.4,13.5,0.00,ENE,60,0.0,0.0,53,0.00,,---,0.00,VWS V14.00,2013-03-29 11:44:00,
2013-03-29 05:45:00,28.4,13.5,0.00,ENE,58,0.0,0.0,53,0.00,,---,0.00,VWS V14.00,2013-03-29 11:45:00,
2013-03-29 05:46:00,28.4,13.5,0.00,ENE,58,0.0,0.0,53,0.00,,---,0.00,VWS V14.00,2013-03-29 11:46:00,
2013-03-29 05:48:00,28.4,13.5,0.00,ENE,60,0.0,0.0,53,0.00,,---,0.00,VWS V14.00,2013-03-29 11:48:00,
2013-03-29 05:49:00,28.4,13.5,0.00,NE,40,0.0,0.0,53,0.00,,---,0.00,VWS V14.00,2013-03-29 11:49:00,
2013-03-29 05:50:00,28.4,13.5,0.00,NE,40,0.0,0.0,53,0.00,,---,0.00,VWS V14.00,2013-03-29 11:50:00,
2013-03-29 05:52:00,28.4,13.5,0.00,NE,40,0.0,0.0,53,0.00,,---,0.00,VWS V14.00,2013-03-29 11:52:00,
2013-03-29 05:53:00,28.4,13.5,0.00,NE,40,0.0,0.0,53,0.00,,---,0.00,VWS V14.00,2013-03-29 11:53:00,
2013-03-29 05:54:00,28.4,13.5,0.00,NE,39,0.0,0.0,53,0.00,,---,0.00,VWS V14.00,2013-03-29 11:54:00,
2013-03-29 05:55:00,28.4,13.0,0.00,NE,40,0.0,0.0,52,0.00,,---,0.00,VWS V14.00,2013-03-29 11:55:00,
2013-03-29 05:57:00,28.4,13.0,0.00,NE,40,0.0,0.0,52,0.00,,---,0.00,VWS V14.00,2013-03-29 11:57:00,
2013-03-29 05:58:00,28.4,13.0,0.00,NE,39,0.0,0.0,52,0.00,,---,0.00,VWS V14.00,2013-03-29 11:58:00,
2013-03-29 05:59:00,28.4,13.0,0.00,NE,38,0.0,0.0,52,0.00,,---,0.00,VWS V14.00,2013-03-29 11:59:00,
2013-03-29 06:01:00,28.4,13.0,0.00,NE,40,0.0,0.0,52,0.00,,---,0.00,VWS V14.00,2013-03-29 12:01:00,
2013-03-29 06:02:00,28.4,13.0,0.00,NE,43,0.0,0.0,52,0.00,,---,0.00,VWS V14.00,2013-03-29 12:02:00,
2013-03-29 06:03:00,28.4,13.0,0.00,NE,47,0.0,0.0,52,0.00,,---,0.00,VWS V14.00,2013-03-29 12:03:00,
2013-03-29 06:04:00,28.4,13.0,0.00,NE,47,0.0,0.0,52,0.00,,---,0.00,VWS V14.00,2013-03-29 12:04:00,
2013-03-29 06:06:00,28.4,13.0,0.00,NE,47,0.0,0.0,52,0.00,,---,0.00,VWS V14.00,2013-03-29 12:06:00,
2013-03-29 06:07:00,28.4,13.0,0.00,NE,47,0.0,0.0,52,0.00,,---,0.00,VWS V14.00,2013-03-29 12:07:00,
2013-03-29 06:08:00,28.4,13.0,0.00,NE,42,0.0,0.0,52,0.00,,---,0.00,VWS V14.00,2013-03-29 12:08:00,
2013-03-29 06:09:00,28.4,13.0,0.00,NNW,341,0.0,0.0,52,0.00,,---,0.00,VWS V14.00,2013-03-29 12:09:00,
2013-03-29 06:11:00,28.4,13.0,0.00,NNW,341,0.0,0.0,52,0.00,,---,0.00,VWS V14.00,2013-03-29 12:11:00,
2013-03-29 06:12:00,28.4,13.0,0.00,NNW,341,0.0,0.0,52,0.00,,---,0.00,VWS V14.00,2013-03-29 12:12:00,
2013-03-29 06:13:00,28.4,13.0,0.00,NNW,341,0.0,0.0,52,0.00,,---,0.00,VWS V14.00,2013-03-29 12:13:00,
2013-03-29 06:14:00,28.4,13.0,0.00,NNW,337,0.0,0.0,52,0.00,,---,0.00,VWS V14.00,2013-03-29 12:14:00,
2013-03-29 06:16:00,28.4,13.0,0.00,NNW,329,0.0,0.0,52,0.00,,---,0.00,VWS V14.00,2013-03-29 12:16:00,
2013-03-29 06:17:00,28.4,13.0,0.00,NNW,341,0.0,0.0,52,0.00,,---,0.00,VWS V14.00,2013-03-29 12:17:00,
2013-03-29 06:18:00,28.4,13.0,0.00,NNW,333,0.0,0.0,52,0.00,,---,0.00,VWS V14.00,2013-03-29 12:18:00,
2013-03-29 06:19:00,28.4,13.0,0.00,NNW,340,0.0,0.0,52,0.00,,---,0.00,VWS V14.00,2013-03-29 12:19:00,
2013-03-29 06:21:00,28.4,13.0,0.00,NW,311,0.0,0.0,52,0.00,,---,0.00,VWS V14.00,2013-03-29 12:21:00,
2013-03-29 06:22:00,28.4,13.0,0.00,NW,310,0.0,0.0,52,0.00,,---,0.00,VWS V14.00,2013-03-29 12:22:00,
2013-03-29 06:23:00,28.4,13.0,0.00,NW,309,0.0,0.0,52,0.00,,---,0.00,VWS V14.00,2013-03-29 12:23:00,
2013-03-29 06:24:00,28.4,13.0,0.00,WNW,299,0.0,0.0,52,0.00,,---,0.00,VWS V14.00,2013-03-29 12:24:00,
2013-03-29 06:26:00,28.4,13.0,0.00,NW,310,0.0,0.0,52,0.00,,---,0.00,VWS V14.00,2013-03-29 12:26:00,
2013-03-29 06:27:00,28.4,13.0,0.00,NW,310,0.0,0.0,52,0.00,,---,0.00,VWS V14.00,2013-03-29 12:27:00,
2013-03-29 06:28:00,28.4,13.0,0.00,NW,310,0.0,0.0,52,0.00,,---,0.00,VWS V14.00,2013-03-29 12:28:00,
2013-03-29 06:30:00,28.4,13.0,0.00,NW,310,0.0,0.0,52,0.00,,---,0.00,VWS V14.00,2013-03-29 12:30:00,
2013-03-29 06:32:00,28.4,13.0,0.00,NW,309,0.0,0.0,52,0.00,,---,0.00,VWS V14.00,2013-03-29 12:32:00,
2013-03-29 06:33:00,28.4,13.0,0.00,NW,309,0.0,0.0,52,0.00,,---,0.00,VWS V14.00,2013-03-29 12:33:00,
2013-03-29 06:35:00,28.4,13.0,0.00,NW,309,0.0,0.0,52,0.00,,---,0.00,VWS V14.00,2013-03-29 12:35:00,
2013-03-29 06:37:00,28.2,12.9,0.00,NW,310,0.0,0.0,52,0.00,,---,0.00,VWS V14.00,2013-03-29 12:37:00,
2013-03-29 06:38:00,28.2,12.9,0.00,NW,309,0.0,0.0,52,0.00,,---,0.00,VWS V14.00,2013-03-29 12:38:00,
2013-03-29 06:40:00,28.2,12.9,0.00,NW,310,0.0,0.0,52,0.00,,---,0.00,VWS V14.00,2013-03-29 12:40:00,
2013-03-29 06:42:00,28.2,12.9,0.00,NW,308,0.0,0.0,52,0.00,,---,0.00,VWS V14.00,2013-03-29 12:42:00,
2013-03-29 06:43:00,28.2,12.9,0.00,NW,304,0.0,0.0,52,0.00,,---,0.00,VWS V14.00,2013-03-29 12:43:00,
2013-03-29 06:45:00,28.2,12.9,0.00,West,281,0.0,0.0,52,0.00,,---,0.00,VWS V14.00,2013-03-29 12:45:00,
2013-03-29 06:47:00,28.2,12.9,0.00,West,281,0.0,0.0,52,0.00,,---,0.00,VWS V14.00,2013-03-29 12:47:00,
2013-03-29 06:48:00,28.2,12.9,0.00,WNW,282,0.0,0.0,52,0.00,,---,0.00,VWS V14.00,2013-03-29 12:48:00,
2013-03-29 06:49:00,28.2,12.9,0.00,WNW,298,3.6,3.6,52,0.00,,---,0.00,VWS V14.00,2013-03-29 12:49:00,
2013-03-29 06:51:00,28.2,12.9,0.00,WNW,298,2.2,3.1,52,0.00,,---,0.00,VWS V14.00,2013-03-29 12:51:00,
2013-03-29 06:52:00,28.2,12.9,0.00,WNW,298,0.0,0.0,52,0.00,,---,0.00,VWS V14.00,2013-03-29 12:52:00,
2013-03-29 06:53:00,28.2,12.9,0.00,WNW,298,0.0,0.0,52,0.00,,---,0.00,VWS V14.00,2013-03-29 12:53:00,
2013-03-29 06:54:00,28.2,12.9,0.00,WNW,298,3.1,3.1,52,0.00,,---,0.00,VWS V14.00,2013-03-29 12:54:00,
2013-03-29 06:56:00,28.2,12.9,0.00,WNW,298,2.2,2.2,52,0.00,,---,0.00,VWS V14.00,2013-03-29 12:56:00,
2013-03-29 06:57:00,28.2,12.9,0.00,WNW,298,0.0,0.0,52,0.00,,---,0.00,VWS V14.00,2013-03-29 12:57:00,
2013-03-29 06:58:00,28.2,12.9,0.00,WNW,298,0.0,0.0,52,0.00,,---,0.00,VWS V14.00,2013-03-29 12:58:00,
2013-03-29 06:59:00,28.2,12.9,0.00,WNW,298,0.0,0.0,52,0.00,,---,0.00,VWS V14.00,2013-03-29 12:59:00,
2013-03-29 07:01:00,28.2,12.9,0.00,WNW,298,0.0,0.0,52,0.00,,---,0.00,VWS V14.00,2013-03-29 13:01:00,
2013-03-29 07:03:00,28.2,12.9,0.00,WNW,298,0.0,0.0,52,0.00,,---,0.00,VWS V14.00,2013-03-29 13:03:00,
2013-03-29 07:04:00,28.2,12.9,0.00,WNW,295,0.0,0.0,52,0.00,,---,0.00,VWS V14.00,2013-03-29 13:04:00,
2013-03-29 07:06:00,28.2,12.9,0.00,WNW,298,0.0,0.0,52,0.00,,---,0.00,VWS V14.00,2013-03-29 13:06:00,
2013-03-29 07:08:00,28.2,12.9,0.00,WNW,298,0.0,0.0,52,0.00,,---,0.00,VWS V14.00,2013-03-29 13:08:00,
2013-03-29 07:09:00,28.4,13.0,0.00,WNW,298,0.0,0.0,52,0.00,,---,0.00,VWS V14.00,2013-03-29 13:09:00,
2013-03-29 07:11:00,28.4,13.0,0.00,WNW,298,0.0,0.0,52,0.00,,---,0.00,VWS V14.00,2013-03-29 13:11:00,
2013-03-29 07:13:00,28.4,13.0,0.00,WNW,298,0.0,0.0,52,0.00,,---,0.00,VWS V14.00,2013-03-29 13:13:00,
2013-03-29 07:14:00,28.4,13.0,0.00,WNW,298,0.0,0.0,52,0.00,,---,0.00,VWS V14.00,2013-03-29 13:14:00,
2013-03-29 07:16:00,28.4,13.0,0.00,WNW,298,0.0,0.0,52,0.00,,---,0.00,VWS V14.00,2013-03-29 13:16:00,
2013-03-29 07:18:00,28.4,13.0,0.00,WNW,298,0.0,0.0,52,0.00,,---,0.00,VWS V14.00,2013-03-29 13:18:00,
2013-03-29 07:19:00,28.4,13.0,0.00,WNW,298,0.0,0.0,52,0.00,,---,0.00,VWS V14.00,2013-03-29 13:19:00,
2013-03-29 07:21:00,28.4,13.0,0.00,WNW,298,0.0,0.0,52,0.00,,---,0.00,VWS V14.00,2013-03-29 13:21:00,
2013-03-29 07:23:00,28.4,13.0,0.00,WNW,298,0.0,0.0,52,0.00,,---,0.00,VWS V14.00,2013-03-29 13:23:00,
2013-03-29 07:24:00,28.4,13.0,0.00,WNW,298,0.0,0.0,52,0.00,,---,0.00,VWS V14.00,2013-03-29 13:24:00,
2013-03-29 07:26:00,28.6,13.2,0.00,WNW,298,0.0,0.0,52,0.00,,---,0.00,VWS V14.00,2013-03-29 13:26:00,
2013-03-29 07:28:00,28.6,13.2,0.00,WNW,298,0.0,0.0,52,0.00,,---,0.00,VWS V14.00,2013-03-29 13:28:00,
2013-03-29 07:29:00,28.6,13.2,0.00,WNW,298,0.0,0.0,52,0.00,,---,0.00,VWS V14.00,2013-03-29 13:29:00,
2013-03-29 07:32:00,28.6,13.2,0.00,WNW,284,0.0,0.0,52,0.00,,---,0.00,VWS V14.00,2013-03-29 13:32:00,
2013-03-29 07:33:00,28.6,13.2,0.00,WNW,292,0.0,0.0,52,0.00,,---,0.00,VWS V14.00,2013-03-29 13:33:00,
2013-03-29 07:34:00,28.6,13.2,0.00,WNW,292,0.0,0.0,52,0.00,,---,0.00,VWS V14.00,2013-03-29 13:34:00,
2013-03-29 07:37:00,28.6,13.2,0.00,WNW,292,0.0,0.0,52,0.00,,---,0.00,VWS V14.00,2013-03-29 13:37:00,
2013-03-29 07:38:00,28.6,13.2,0.00,WNW,292,0.0,0.0,52,0.00,,---,0.00,VWS V14.00,2013-03-29 13:38:00,
2013-03-29 07:39:00,28.6,13.2,0.00,WNW,292,0.0,0.0,52,0.00,,---,0.00,VWS V14.00,2013-03-29 13:39:00,
2013-03-29 07:42:00,28.8,13.4,0.00,WNW,292,0.0,0.0,52,0.00,,---,0.00,VWS V14.00,2013-03-29 13:42:00,
2013-03-29 07:44:00,28.8,13.4,0.00,WNW,292,0.0,0.0,52,0.00,,---,0.00,VWS V14.00,2013-03-29 13:44:00,
2013-03-29 07:47:00,28.8,13.4,0.00,WNW,293,0.0,0.0,52,0.00,,---,0.00,VWS V14.00,2013-03-29 13:47:00,
2013-03-29 07:49:00,28.8,13.4,0.00,WNW,293,0.0,0.0,52,0.00,,---,0.00,VWS V14.00,2013-03-29 13:49:00,
2013-03-29 07:50:00,28.9,13.5,0.00,WNW,293,0.0,0.0,52,0.00,,---,0.00,VWS V14.00,2013-03-29 13:50:00,
2013-03-29 07:52:00,28.9,13.5,0.00,WNW,292,0.0,0.0,52,0.00,,---,0.00,VWS V14.00,2013-03-29 13:52:00,
2013-03-29 07:54:00,28.9,13.5,0.00,WNW,292,0.0,0.0,52,0.00,,---,0.00,VWS V14.00,2013-03-29 13:54:00,
2013-03-29 07:55:00,28.9,13.1,0.00,WNW,292,0.0,0.0,51,0.00,,---,0.00,VWS V14.00,2013-03-29 13:55:00,
2013-03-29 07:57:00,28.9,13.1,0.00,WNW,292,0.0,0.0,51,0.00,,---,0.00,VWS V14.00,2013-03-29 13:57:00,
2013-03-29 07:59:00,29.1,13.7,0.00,WNW,292,0.0,0.0,52,0.00,,---,0.00,VWS V14.00,2013-03-29 13:59:00,
2013-03-29 08:00:00,29.1,13.7,0.00,WNW,292,0.0,0.0,52,0.00,,---,0.00,VWS V14.00,2013-03-29 14:00:00,
2013-03-29 08:01:00,29.1,13.7,0.00,WNW,292,0.0,0.0,52,0.00,,---,0.00,VWS V14.00,2013-03-29 14:01:00,
2013-03-29 08:02:00,29.1,13.7,0.00,WNW,292,0.0,0.0,52,0.00,,---,0.00,VWS V14.00,2013-03-29 14:02:00,
2013-03-29 08:04:00,29.1,13.7,0.00,WNW,291,0.0,0.0,52,0.00,,---,0.00,VWS V14.00,2013-03-29 14:04:00,
2013-03-29 08:05:00,29.3,13.9,0.00,WNW,292,0.0,0.0,52,0.00,,---,0.00,VWS V14.00,2013-03-29 14:05:00,
2013-03-29 08:06:00,29.3,13.9,0.00,WNW,292,0.0,0.0,52,0.00,,---,0.00,VWS V14.00,2013-03-29 14:06:00,
2013-03-29 08:07:00,29.3,13.9,0.00,WNW,292,0.0,0.0,52,0.00,,---,0.00,VWS V14.00,2013-03-29 14:07:00,
2013-03-29 08:09:00,29.5,14.0,0.00,WNW,292,0.0,0.0,52,0.00,,---,0.00,VWS V14.00,2013-03-29 14:09:00,
2013-03-29 08:10:00,29.5,14.0,0.00,WNW,292,0.0,0.0,52,0.00,,---,0.00,VWS V14.00,2013-03-29 14:10:00,
2013-03-29 08:11:00,29.5,14.0,0.00,WNW,290,0.0,0.0,52,0.00,,---,0.00,VWS V14.00,2013-03-29 14:11:00,
2013-03-29 08:12:00,29.5,14.0,0.00,WNW,284,0.0,0.0,52,0.00,,---,0.00,VWS V14.00,2013-03-29 14:12:00,
2013-03-29 08:14:00,29.5,14.0,0.00,WNW,289,0.0,0.0,52,0.00,,---,0.00,VWS V14.00,2013-03-29 14:14:00,
2013-03-29 08:15:00,29.5,14.0,0.00,East,82,3.6,4.9,52,0.00,,---,0.00,VWS V14.00,2013-03-29 14:15:00,
2013-03-29 08:16:00,29.5,14.0,0.00,ESE,114,2.2,3.1,52,0.00,,---,0.00,VWS V14.00,2013-03-29 14:16:00,
2013-03-29 08:17:00,29.7,14.2,0.00,ESE,114,0.0,0.0,52,0.00,,---,0.00,VWS V14.00,2013-03-29 14:17:00,
2013-03-29 08:19:00,29.7,14.2,0.00,ESE,112,0.0,0.0,52,0.00,,---,0.00,VWS V14.00,2013-03-29 14:19:00,
2013-03-29 08:20:00,29.7,13.8,0.00,East,97,2.2,3.6,51,0.00,,---,0.00,VWS V14.00,2013-03-29 14:20:00,
2013-03-29 08:21:00,29.8,13.9,0.00,ESE,106,0.0,0.0,51,0.00,,---,0.00,VWS V14.00,2013-03-29 14:21:00,
2013-03-29 08:22:00,29.8,13.9,0.00,ESE,105,0.0,0.0,51,0.00,,---,0.00,VWS V14.00,2013-03-29 14:22:00,
2013-03-29 08:25:00,30.0,14.1,0.00,East,82,0.0,0.0,51,0.00,,---,0.00,VWS V14.00,2013-03-29 14:25:00,
2013-03-29 08:27:00,30.0,14.1,0.00,East,82,0.0,0.0,51,0.00,,---,0.00,VWS V14.00,2013-03-29 14:27:00,
2013-03-29 08:30:00,30.2,14.3,0.00,East,82,0.0,0.0,51,0.00,,---,0.00,VWS V14.00,2013-03-29 14:30:00,
2013-03-29 08:32:00,30.2,14.7,0.00,ESE,116,2.7,2.7,52,0.00,,---,0.00,VWS V14.00,2013-03-29 14:32:00,
2013-03-29 08:33:00,30.4,14.4,0.00,ESE,120,4.0,4.9,51,0.00,,---,0.00,VWS V14.00,2013-03-29 14:33:00,
2013-03-29 08:35:00,30.4,14.4,0.00,ESE,123,0.0,0.0,51,0.00,,---,0.00,VWS V14.00,2013-03-29 14:35:00,
2013-03-29 08:37:00,30.6,14.6,0.00,South,170,0.0,0.0,51,0.00,,---,0.00,VWS V14.00,2013-03-29 14:37:00,
2013-03-29 08:38:00,30.6,14.6,0.00,WSW,242,0.0,0.0,51,0.00,,---,0.00,VWS V14.00,2013-03-29 14:38:00,
2013-03-29 08:40:00,30.7,14.8,0.00,SW,221,3.6,3.6,51,0.00,,---,0.00,VWS V14.00,2013-03-29 14:40:00,
2013-03-29 08:41:00,30.7,14.8,0.00,SW,225,0.0,2.7,51,0.00,,---,0.00,VWS V14.00,2013-03-29 14:41:00,
2013-03-29 08:42:00,30.9,14.9,0.00,ESE,121,3.6,3.6,51,0.00,,---,0.00,VWS V14.00,2013-03-29 14:42:00,
2013-03-29 08:43:00,30.9,14.9,0.00,ESE,121,2.7,2.7,51,0.00,,---,0.00,VWS V14.00,2013-03-29 14:43:00,
2013-03-29 08:45:00,31.1,15.1,0.00,SE,126,3.6,3.6,51,0.00,,---,0.00,VWS V14.00,2013-03-29 14:45:00,
2013-03-29 08:46:00,31.1,15.1,0.00,ENE,59,3.1,3.1,51,0.00,,---,0.00,VWS V14.00,2013-03-29 14:46:00,
2013-03-29 08:47:00,31.1,15.1,0.00,ENE,78,0.0,0.0,51,0.00,,---,0.00,VWS V14.00,2013-03-29 14:47:00,
2013-03-29 08:48:00,31.3,15.3,0.00,ESE,109,3.1,3.1,51,0.00,,---,0.00,VWS V14.00,2013-03-29 14:48:00,
2013-03-29 08:50:00,31.5,15.0,0.00,SW,218,0.0,0.0,50,0.00,,---,0.00,VWS V14.00,2013-03-29 14:50:00,
2013-03-29 08:51:00,31.5,15.0,0.00,East,100,3.6,3.6,50,0.00,,---,0.00,VWS V14.00,2013-03-29 14:51:00,
2013-03-29 08:52:00,31.6,15.1,0.00,ESE,103,3.1,3.1,50,0.00,,---,0.00,VWS V14.00,2013-03-29 14:52:00,
2013-03-29 08:53:00,31.6,15.1,0.00,East,86,0.0,3.6,50,0.00,,---,0.00,VWS V14.00,2013-03-29 14:53:00,
2013-03-29 08:56:00,31.8,15.3,0.00,East,88,4.0,4.0,50,0.00,,---,0.00,VWS V14.00,2013-03-29 14:56:00,
2013-03-29 08:57:00,32.0,15.5,0.00,East,87,4.0,4.0,50,0.00,,---,0.00,VWS V14.00,2013-03-29 14:57:00,
2013-03-29 08:58:00,32.0,15.5,0.00,East,93,3.1,3.1,50,0.00,,---,0.00,VWS V14.00,2013-03-29 14:58:00,
2013-03-29 09:01:00,32.2,15.6,0.00,ENE,73,0.0,2.2,50,0.00,,---,0.00,VWS V14.00,2013-03-29 15:01:00,
2013-03-29 09:02:00,32.2,15.6,0.00,West,269,0.0,0.0,50,0.00,,---,0.00,VWS V14.00,2013-03-29 15:02:00,
2013-03-29 09:03:00,32.4,15.8,0.00,West,277,0.0,0.0,50,0.00,,---,0.00,VWS V14.00,2013-03-29 15:03:00,
2013-03-29 09:06:00,32.4,15.8,0.00,West,276,0.0,0.0,50,0.00,,---,0.00,VWS V14.00,2013-03-29 15:06:00,
2013-03-29 09:07:00,32.5,16.0,0.00,West,270,0.0,0.0,50,0.00,,---,0.00,VWS V14.00,2013-03-29 15:07:00,
2013-03-29 09:08:00,32.5,16.0,0.00,NW,316,0.0,2.7,50,0.00,,---,0.00,VWS V14.00,2013-03-29 15:08:00,
2013-03-29 09:12:00,32.7,15.7,0.00,NW,308,0.0,0.0,49,0.00,,---,0.00,VWS V14.00,2013-03-29 15:12:00,
2013-03-29 09:13:00,32.9,15.9,0.00,NW,308,0.0,0.0,49,0.00,,---,0.00,VWS V14.00,2013-03-29 15:13:00,
2013-03-29 09:17:00,33.3,16.2,0.00,NE,50,3.1,5.4,49,0.00,,---,0.00,VWS V14.00,2013-03-29 15:17:00,
2013-03-29 09:18:00,33.3,16.2,0.00,South,174,0.0,0.0,49,0.00,,---,0.00,VWS V14.00,2013-03-29 15:18:00,
2013-03-29 09:22:00,33.6,16.5,0.00,SE,145,0.0,3.1,49,0.00,,---,0.00,VWS V14.00,2013-03-29 15:22:00,
2013-03-29 09:23:00,33.6,16.5,0.00,SE,145,0.0,0.0,49,0.00,,---,0.00,VWS V14.00,2013-03-29 15:23:00,
2013-03-29 09:27:00,33.8,16.7,0.00,ESE,103,0.0,0.0,49,0.00,,---,0.00,VWS V14.00,2013-03-29 15:27:00,
2013-03-29 09:28:00,33.8,16.7,0.00,SE,135,4.5,4.5,49,0.00,,---,0.00,VWS V14.00,2013-03-29 15:28:00,
2013-03-29 09:32:00,34.3,17.2,0.00,ESE,103,2.7,3.6,49,0.00,,---,0.00,VWS V14.00,2013-03-29 15:32:00,
2013-03-29 09:33:00,34.3,17.2,0.00,ESE,119,6.3,6.3,49,0.00,,---,0.00,VWS V14.00,2013-03-29 15:33:00,
2013-03-29 09:34:00,34.3,17.2,0.00,East,95,4.0,5.4,49,0.00,,---,0.00,VWS V14.00,2013-03-29 15:34:00,
2013-03-29 09:37:00,34.5,17.8,0.00,West,260,0.0,2.2,50,0.00,,---,0.00,VWS V14.00,2013-03-29 15:37:00,
2013-03-29 09:38:00,34.5,17.8,0.00,West,261,0.0,0.0,50,0.00,,---,0.00,VWS V14.00,2013-03-29 15:38:00,
2013-03-29 09:39:00,34.7,18.0,0.00,NNW,333,2.2,2.2,50,0.00,,---,0.00,VWS V14.00,2013-03-29 15:39:00,
2013-03-29 09:42:00,34.9,17.7,0.00,ESE,112,3.6,5.8,49,0.00,,---,0.00,VWS V14.00,2013-03-29 15:42:00,
2013-03-29 09:43:00,34.9,17.7,0.00,ESE,112,3.6,5.8,49,0.00,,---,0.00,VWS V14.00,2013-03-29 15:43:00,
2013-03-29 09:44:00,35.2,18.0,0.00,NE,50,2.7,3.1,49,0.00,,---,0.00,VWS V14.00,2013-03-29 15:44:00,
2013-03-29 09:47:00,35.6,17.4,0.00,SW,231,4.5,8.3,47,0.00,,---,0.00,VWS V14.00,2013-03-29 15:47:00,
2013-03-29 09:48:00,35.6,17.4,0.00,WSW,238,3.6,4.5,47,0.00,,---,0.00,VWS V14.00,2013-03-29 15:48:00,
2013-03-29 09:49:00,35.8,17.5,0.00,SSW,208,3.6,4.9,47,0.00,,---,0.00,VWS V14.00,2013-03-29 15:49:00,
2013-03-29 09:53:00,36.3,17.5,0.00,SSE,166,4.9,4.9,46,0.00,,---,0.00,VWS V14.00,2013-03-29 15:53:00,
2013-03-29 09:54:00,36.3,17.5,0.00,SSW,202,2.7,4.9,46,0.00,,---,0.00,VWS V14.00,2013-03-29 15:54:00,
2013-03-29 09:58:00,36.7,17.4,0.00,ENE,69,6.3,6.3,45,0.00,,---,0.00,VWS V14.00,2013-03-29 15:58:00,
2013-03-29 09:59:00,36.9,17.5,0.00,SSE,161,4.9,8.3,45,0.00,,---,0.00,VWS V14.00,2013-03-29 15:59:00,
2013-03-29 10:03:00,37.4,17.5,0.00,West,271,3.6,5.8,44,0.00,,---,0.00,VWS V14.00,2013-03-29 16:03:00,
2013-03-29 10:04:00,37.4,17.0,0.00,SSE,159,4.0,4.0,43,0.00,,---,0.00,VWS V14.00,2013-03-29 16:04:00,
2013-03-29 10:08:00,38.1,18.1,0.00,SSW,197,0.0,2.7,44,0.00,,---,0.00,VWS V14.00,2013-03-29 16:08:00,
2013-03-29 10:09:00,38.1,18.1,0.00,West,267,3.6,3.6,44,0.00,,---,0.00,VWS V14.00,2013-03-29 16:09:00,
2013-03-29 10:13:00,38.7,18.1,0.00,SW,230,4.9,4.9,43,0.00,,---,0.00,VWS V14.00,2013-03-29 16:13:00,
2013-03-29 10:14:00,38.8,17.7,0.00,WSW,242,2.2,4.5,42,0.00,,---,0.00,VWS V14.00,2013-03-29 16:14:00,
2013-03-29 10:18:00,39.2,18.0,0.00,SE,143,6.3,8.1,42,0.00,,---,0.00,VWS V14.00,2013-03-29 16:18:00,
2013-03-29 10:19:00,39.4,18.2,0.00,SW,222,5.8,5.8,42,0.00,,---,0.00,VWS V14.00,2013-03-29 16:19:00,
2013-03-29 10:23:00,39.7,18.5,0.00,South,182,3.1,4.0,42,0.00,,---,0.00,VWS V14.00,2013-03-29 16:23:00,
2013-03-29 10:24:00,39.7,18.5,0.00,WSW,257,4.0,4.0,42,0.00,,---,0.00,VWS V14.00,2013-03-29 16:24:00,
2013-03-29 10:28:00,40.1,18.3,0.00,South,180,3.6,4.0,41,0.00,,---,0.00,VWS V14.00,2013-03-29 16:28:00,
2013-03-29 10:29:00,40.3,18.5,0.00,SSE,153,2.7,3.6,41,0.00,,---,0.00,VWS V14.00,2013-03-29 16:29:00,
2013-03-29 10:34:00,40.5,18.6,0.00,SSW,210,3.1,7.6,41,0.00,,---,0.00,VWS V14.00,2013-03-29 16:34:00,
2013-03-29 10:39:00,41.0,19.1,0.00,ESE,118,4.9,5.4,41,0.00,,---,0.00,VWS V14.00,2013-03-29 16:39:00,
2013-03-29 10:44:00,41.4,19.5,0.00,SE,143,3.1,4.0,41,0.00,,---,0.00,VWS V14.00,2013-03-29 16:44:00,
2013-03-29 10:45:00,41.4,19.5,0.00,SSW,209,5.8,5.8,41,0.00,,---,0.00,VWS V14.00,2013-03-29 16:45:00,
2013-03-29 10:49:00,41.7,19.8,0.00,East,89,7.2,7.2,41,0.00,,---,0.00,VWS V14.00,2013-03-29 16:49:00,
2013-03-29 10:50:00,41.7,19.8,0.00,NE,48,7.2,12.8,41,0.00,,---,0.00,VWS V14.00,2013-03-29 16:50:00,
2013-03-29 10:54:00,42.1,20.1,0.00,SE,146,3.1,8.7,41,0.00,,---,0.00,VWS V14.00,2013-03-29 16:54:00,
2013-03-29 10:55:00,42.1,19.5,0.00,SE,136,5.8,6.3,40,0.00,,---,0.00,VWS V14.00,2013-03-29 16:55:00,
2013-03-29 10:59:00,42.4,20.4,0.00,East,88,8.7,8.7,41,0.00,,---,0.00,VWS V14.00,2013-03-29 16:59:00,
2013-03-29 11:00:00,42.4,20.4,0.00,SE,145,5.8,12.3,41,0.00,,---,0.00,VWS V14.00,2013-03-29 17:00:00,
2013-03-29 11:04:00,42.6,20.0,0.00,ESE,111,3.1,6.3,40,0.00,,---,0.00,VWS V14.00,2013-03-29 17:04:00,
2013-03-29 11:05:00,42.8,20.2,0.00,East,83,7.6,7.6,40,0.00,,---,0.00,VWS V14.00,2013-03-29 17:05:00,
2013-03-29 11:09:00,43.0,20.3,0.00,ESE,108,8.1,13.2,40,0.00,,---,0.00,VWS V14.00,2013-03-29 17:09:00,
2013-03-29 11:10:00,43.0,20.3,0.00,ESE,116,5.8,8.1,40,0.00,,---,0.00,VWS V14.00,2013-03-29 17:10:00,
2013-03-29 11:14:00,43.2,20.5,0.00,East,93,7.2,7.6,40,0.00,,---,0.00,VWS V14.00,2013-03-29 17:14:00,
2013-03-29 11:15:00,43.2,20.5,0.00,East,93,7.2,7.6,40,0.00,,---,0.00,VWS V14.00,2013-03-29 17:15:00,
2013-03-29 11:20:00,43.5,20.8,0.00,ESE,119,8.7,8.7,40,0.00,,---,0.00,VWS V14.00,2013-03-29 17:20:00,
2013-03-29 11:25:00,43.7,21.0,0.00,ESE,120,11.0,11.0,40,0.00,,---,0.00,VWS V14.00,2013-03-29 17:25:00,
2013-03-29 11:30:00,43.9,21.1,0.00,ESE,104,6.3,10.5,40,0.00,,---,0.00,VWS V14.00,2013-03-29 17:30:00,
2013-03-29 11:35:00,44.1,21.3,0.00,East,101,8.1,8.1,40,0.00,,---,0.00,VWS V14.00,2013-03-29 17:35:00,
2013-03-29 11:40:00,44.2,21.5,0.00,ESE,106,7.6,7.6,40,0.00,,---,0.00,VWS V14.00,2013-03-29 17:40:00,
2013-03-29 11:45:00,44.6,21.2,0.00,ESE,123,2.7,4.5,39,0.00,,---,0.00,VWS V14.00,2013-03-29 17:45:00,
2013-03-29 11:50:00,44.8,21.4,0.00,SE,132,4.9,4.9,39,0.00,,---,0.00,VWS V14.00,2013-03-29 17:50:00,
2013-03-29 11:55:00,45.1,21.7,0.00,SSW,201,4.9,5.4,39,0.00,,---,0.00,VWS V14.00,2013-03-29 17:55:00,
2013-03-29 11:56:00,45.1,21.7,0.00,East,101,4.0,6.3,39,0.00,,---,0.00,VWS V14.00,2013-03-29 17:56:00,
2013-03-29 12:00:00,45.3,21.8,0.00,East,90,6.7,6.7,39,0.00,,---,0.00,VWS V14.00,2013-03-29 18:00:00,
2013-03-29 12:01:00,45.3,21.8,0.00,ESE,115,8.3,8.3,39,0.00,,---,0.00,VWS V14.00,2013-03-29 18:01:00,
2013-03-29 12:05:00,45.5,22.0,0.00,ESE,109,7.6,9.6,39,0.00,,---,0.00,VWS V14.00,2013-03-29 18:05:00,
2013-03-29 12:06:00,45.5,22.0,0.00,ENE,78,6.3,9.6,39,0.00,,---,0.00,VWS V14.00,2013-03-29 18:06:00,
2013-03-29 12:10:00,45.7,22.2,0.00,SE,133,5.8,8.3,39,0.00,,---,0.00,VWS V14.00,2013-03-29 18:10:00,
2013-03-29 12:11:00,45.7,22.2,0.00,ESE,119,8.1,8.1,39,0.00,,---,0.00,VWS V14.00,2013-03-29 18:11:00,
2013-03-29 12:15:00,45.9,22.3,0.00,SE,125,7.6,8.7,39,0.00,,---,0.00,VWS V14.00,2013-03-29 18:15:00,
2013-03-29 12:16:00,45.9,22.3,0.00,East,87,5.8,7.6,39,0.00,,---,0.00,VWS V14.00,2013-03-29 18:16:00,
2013-03-29 12:17:00,45.9,22.3,0.00,SE,129,5.8,5.8,39,0.00,,---,0.00,VWS V14.00,2013-03-29 18:17:00,
2013-03-29 12:20:00,46.0,21.9,0.00,ESE,102,6.3,6.3,38,0.00,,---,0.00,VWS V14.00,2013-03-29 18:20:00,
2013-03-29 12:21:00,46.0,21.9,0.00,ESE,102,6.3,6.3,38,0.00,,---,0.00,VWS V14.00,2013-03-29 18:21:00,
2013-03-29 12:22:00,46.0,21.9,0.00,SE,139,8.1,8.3,38,0.00,,---,0.00,VWS V14.00,2013-03-29 18:22:00,
2013-03-29 12:26:00,46.2,22.0,0.00,ESE,117,5.4,5.8,38,0.00,,---,0.00,VWS V14.00,2013-03-29 18:26:00,
2013-03-29 12:27:00,46.2,22.0,0.00,East,89,5.8,7.6,38,0.00,,---,0.00,VWS V14.00,2013-03-29 18:27:00,
2013-03-29 12:31:00,46.4,22.2,0.00,ESE,102,8.3,11.0,38,0.00,,---,0.00,VWS V14.00,2013-03-29 18:31:00,
2013-03-29 12:32:00,46.4,22.2,0.00,ENE,73,8.3,8.3,38,0.00,,---,0.00,VWS V14.00,2013-03-29 18:32:00,
2013-03-29 12:33:00,46.6,22.4,0.00,WSW,244,2.7,6.7,38,0.00,,---,0.00,VWS V14.00,2013-03-29 18:33:00,
2013-03-29 12:36:00,46.6,22.4,0.00,East,84,5.4,5.4,38,0.00,,---,0.00,VWS V14.00,2013-03-29 18:36:00,
2013-03-29 12:37:00,46.6,22.4,0.00,SSE,157,3.6,7.6,38,0.00,,---,0.00,VWS V14.00,2013-03-29 18:37:00,
2013-03-29 12:38:00,46.6,22.4,0.00,East,80,4.0,11.0,38,0.00,,---,0.00,VWS V14.00,2013-03-29 18:38:00,
2013-03-29 12:41:00,46.8,22.5,0.00,South,172,2.7,2.7,38,0.00,,---,0.00,VWS V14.00,2013-03-29 18:41:00,
2013-03-29 12:42:00,46.8,22.5,0.00,East,100,4.0,8.1,38,0.00,,---,0.00,VWS V14.00,2013-03-29 18:42:00,
2013-03-29 12:43:00,46.8,22.5,0.00,SE,125,5.4,5.4,38,0.00,,---,0.00,VWS V14.00,2013-03-29 18:43:00,
2013-03-29 12:46:00,46.9,22.7,0.00,East,98,5.8,8.7,38,0.00,,---,0.00,VWS V14.00,2013-03-29 18:46:00,
2013-03-29 12:48:00,46.9,22.7,0.00,SSE,150,7.6,7.6,38,0.00,,---,0.00,VWS V14.00,2013-03-29 18:48:00,
2013-03-29 12:52:00,46.9,22.7,0.00,SE,141,4.0,4.0,38,0.00,,---,0.00,VWS V14.00,2013-03-29 18:52:00,
2013-03-29 12:53:00,46.9,22.7,0.00,SSE,165,0.0,4.0,38,0.00,,---,0.00,VWS V14.00,2013-03-29 18:53:00,
2013-03-29 12:54:00,46.9,22.0,0.00,SE,138,3.1,3.1,37,0.00,,---,0.00,VWS V14.00,2013-03-29 18:54:00,
2013-03-29 12:57:00,46.9,22.7,0.00,ESE,123,4.0,4.0,38,0.00,,---,0.00,VWS V14.00,2013-03-29 18:57:00,
2013-03-29 12:58:00,47.1,22.8,0.00,SE,127,4.0,4.9,38,0.00,,---,0.00,VWS V14.00,2013-03-29 18:58:00,
2013-03-29 13:00:00,47.1,22.8,0.00,ESE,120,4.0,4.0,38,0.00,,---,0.00,VWS V14.00,2013-03-29 19:00:00,
2013-03-29 13:02:00,47.1,22.8,0.00,ESE,109,3.6,5.8,38,0.00,,---,0.00,VWS V14.00,2013-03-29 19:02:00,
2013-03-29 13:03:00,47.3,23.0,0.00,ESE,123,7.6,7.6,38,0.00,,---,0.00,VWS V14.00,2013-03-29 19:03:00,
2013-03-29 13:05:00,47.3,23.0,0.00,SE,129,4.9,4.9,38,0.00,,---,0.00,VWS V14.00,2013-03-29 19:05:00,
2013-03-29 13:07:00,47.3,23.0,0.00,ESE,115,4.0,8.7,38,0.00,,---,0.00,VWS V14.00,2013-03-29 19:07:00,
2013-03-29 13:08:00,47.3,23.0,0.00,ESE,111,5.8,5.8,38,0.00,,---,0.00,VWS V14.00,2013-03-29 19:08:00,
2013-03-29 13:10:00,47.5,23.2,0.00,ESE,118,5.8,5.8,38,0.00,,---,0.00,VWS V14.00,2013-03-29 19:10:00,
2013-03-29 13:12:00,47.5,23.2,0.00,East,90,3.1,4.0,38,0.00,,---,0.00,VWS V14.00,2013-03-29 19:12:00,
2013-03-29 13:13:00,47.5,23.2,0.00,SE,139,5.4,6.3,38,0.00,,---,0.00,VWS V14.00,2013-03-29 19:13:00,
2013-03-29 13:15:00,47.5,23.2,0.00,ENE,60,7.6,7.6,38,0.00,,---,0.00,VWS V14.00,2013-03-29 19:15:00,
2013-03-29 13:17:00,47.7,23.3,0.00,East,99,5.4,6.3,38,0.00,,---,0.00,VWS V14.00,2013-03-29 19:17:00,
2013-03-29 13:18:00,47.7,23.3,0.00,ESE,108,4.0,6.3,38,0.00,,---,0.00,VWS V14.00,2013-03-29 19:18:00,
2013-03-29 13:20:00,47.7,23.3,0.00,ESE,115,5.4,6.3,38,0.00,,---,0.00,VWS V14.00,2013-03-29 19:20:00,
2013-03-29 13:22:00,47.8,23.5,0.00,ENE,73,7.6,10.5,38,0.00,,---,0.00,VWS V14.00,2013-03-29 19:22:00,
2013-03-29 13:23:00,47.8,23.5,0.00,ESE,118,7.2,10.1,38,0.00,,---,0.00,VWS V14.00,2013-03-29 19:23:00,
2013-03-29 13:24:00,47.8,23.5,0.00,ESE,102,6.3,7.2,38,0.00,,---,0.00,VWS V14.00,2013-03-29 19:24:00,
2013-03-29 13:25:00,47.8,23.5,0.00,NE,45,5.8,5.8,38,0.00,,---,0.00,VWS V14.00,2013-03-29 19:25:00,
2013-03-29 13:27:00,48.0,23.6,0.00,ESE,105,6.3,6.3,38,0.00,,---,0.00,VWS V14.00,2013-03-29 19:27:00,
2013-03-29 13:28:00,48.0,23.6,0.00,ESE,111,6.3,9.6,38,0.00,,---,0.00,VWS V14.00,2013-03-29 19:28:00,
2013-03-29 13:29:00,48.0,23.6,0.00,ESE,111,5.8,6.3,38,0.00,,---,0.00,VWS V14.00,2013-03-29 19:29:00,
2013-03-29 13:30:00,48.0,23.6,0.00,SE,133,5.4,10.1,38,0.00,,---,0.00,VWS V14.00,2013-03-29 19:30:00,
2013-03-29 13:32:00,48.0,23.6,0.00,SSE,164,11.0,11.0,38,0.00,,---,0.00,VWS V14.00,2013-03-29 19:32:00,
2013-03-29 13:33:00,48.0,23.6,0.00,SW,215,5.8,7.6,38,0.00,,---,0.00,VWS V14.00,2013-03-29 19:33:00,
2013-03-29 13:34:00,48.0,23.6,0.00,South,187,3.1,3.1,38,0.00,,---,0.00,VWS V14.00,2013-03-29 19:34:00,
2013-03-29 13:35:00,47.8,23.5,0.00,SE,137,5.8,11.0,38,0.00,,---,0.00,VWS V14.00,2013-03-29 19:35:00,
2013-03-29 13:38:00,47.8,23.5,0.00,SW,219,2.7,5.4,38,0.00,,---,0.00,VWS V14.00,2013-03-29 19:38:00,
2013-03-29 13:39:00,47.8,23.5,0.00,SSW,204,2.7,2.7,38,0.00,,---,0.00,VWS V14.00,2013-03-29 19:39:00,
2013-03-29 13:41:00,47.7,23.3,0.00,South,190,2.2,2.2,38,0.00,,---,0.00,VWS V14.00,2013-03-29 19:41:00,
2013-03-29 13:43:00,47.5,23.2,0.00,SW,216,3.1,6.3,38,0.00,,---,0.00,VWS V14.00,2013-03-29 19:43:00,
2013-03-29 13:44:00,47.5,23.2,0.00,SW,218,0.0,6.3,38,0.00,,---,0.00,VWS V14.00,2013-03-29 19:44:00,
2013-03-29 13:46:00,47.3,23.0,0.00,SE,138,8.1,8.1,38,0.00,,---,0.00,VWS V14.00,2013-03-29 19:46:00,
2013-03-29 13:48:00,47.5,23.2,0.00,SW,230,3.6,3.6,38,0.00,,---,0.00,VWS V14.00,2013-03-29 19:48:00,
2013-03-29 13:49:00,47.3,23.0,0.00,SSW,207,4.0,4.0,38,0.00,,---,0.00,VWS V14.00,2013-03-29 19:49:00,
2013-03-29 13:51:00,47.3,23.0,0.00,ESE,122,7.6,7.6,38,0.00,,---,0.00,VWS V14.00,2013-03-29 19:51:00,
2013-03-29 13:53:00,47.3,23.0,0.00,SSW,204,2.2,2.2,38,0.00,,---,0.00,VWS V14.00,2013-03-29 19:53:00,
2013-03-29 13:54:00,47.3,23.0,0.00,SW,217,0.0,2.7,38,0.00,,---,0.00,VWS V14.00,2013-03-29 19:54:00,
2013-03-29 13:56:00,47.3,23.0,0.00,SW,232,3.1,4.0,38,0.00,,---,0.00,VWS V14.00,2013-03-29 19:56:00,
2013-03-29 13:58:00,47.3,23.0,0.00,SW,227,3.6,3.6,38,0.00,,---,0.00,VWS V14.00,2013-03-29 19:58:00,
2013-03-29 13:59:00,47.3,23.0,0.00,SW,227,2.7,2.7,38,0.00,,---,0.00,VWS V14.00,2013-03-29 19:59:00,
2013-03-29 14:01:00,47.3,23.0,0.00,SSW,198,0.0,3.6,38,0.00,,---,0.00,VWS V14.00,2013-03-29 20:01:00,
2013-03-29 14:03:00,47.3,23.0,0.00,SW,227,2.2,2.2,38,0.00,,---,0.00,VWS V14.00,2013-03-29 20:03:00,
2013-03-29 14:04:00,47.3,23.0,0.00,SW,223,2.7,2.7,38,0.00,,---,0.00,VWS V14.00,2013-03-29 20:04:00,
2013-03-29 14:06:00,47.3,22.4,0.00,WSW,251,2.7,2.7,37,0.00,,---,0.00,VWS V14.00,2013-03-29 20:06:00,
2013-03-29 14:08:00,47.3,22.4,0.00,East,86,5.8,5.8,37,0.00,,---,0.00,VWS V14.00,2013-03-29 20:08:00,
2013-03-29 14:09:00,47.3,23.0,0.00,NE,56,0.0,5.4,38,0.00,,---,0.00,VWS V14.00,2013-03-29 20:09:00,
2013-03-29 14:11:00,47.5,22.5,0.00,SW,236,0.0,3.6,37,0.00,,---,0.00,VWS V14.00,2013-03-29 20:11:00,
2013-03-29 14:13:00,47.5,23.2,0.00,SW,221,2.2,2.2,38,0.00,,---,0.00,VWS V14.00,2013-03-29 20:13:00,
2013-03-29 14:14:00,47.5,23.2,0.00,SSW,207,2.7,3.1,38,0.00,,---,0.00,VWS V14.00,2013-03-29 20:14:00,
2013-03-29 14:17:00,47.7,22.7,0.00,South,175,4.0,4.0,37,0.00,,---,0.00,VWS V14.00,2013-03-29 20:17:00,
2013-03-29 14:18:00,47.7,22.7,0.00,South,171,3.1,5.4,37,0.00,,---,0.00,VWS V14.00,2013-03-29 20:18:00,
2013-03-29 14:19:00,47.7,22.7,0.00,SW,214,0.0,4.9,37,0.00,,---,0.00,VWS V14.00,2013-03-29 20:19:00,
2013-03-29 14:20:00,47.7,22.7,0.00,SSW,201,3.1,3.1,37,0.00,,---,0.00,VWS V14.00,2013-03-29 20:20:00,
2013-03-29 14:22:00,47.8,22.9,0.00,SE,139,4.5,4.5,37,0.00,,---,0.00,VWS V14.00,2013-03-29 20:22:00,
2013-03-29 14:23:00,47.8,22.9,0.00,ESE,103,3.6,4.9,37,0.00,,---,0.00,VWS V14.00,2013-03-29 20:23:00,
2013-03-29 14:24:00,47.8,22.9,0.00,East,97,4.9,5.4,37,0.00,,---,0.00,VWS V14.00,2013-03-29 20:24:00,
2013-03-29 14:25:00,47.8,22.9,0.00,NNW,339,4.9,4.9,37,0.00,,---,0.00,VWS V14.00,2013-03-29 20:25:00,
2013-03-29 14:27:00,48.0,23.0,0.00,SSW,196,0.0,0.0,37,0.00,,---,0.00,VWS V14.00,2013-03-29 20:27:00,
2013-03-29 14:29:00,48.0,23.0,0.00,SE,135,3.6,4.0,37,0.00,,---,0.00,VWS V14.00,2013-03-29 20:29:00,
2013-03-29 14:30:00,48.0,23.0,0.00,East,99,3.1,4.0,37,0.00,,---,0.00,VWS V14.00,2013-03-29 20:30:00,
2013-03-29 14:33:00,48.0,23.0,0.00,SSW,210,0.0,0.0,37,0.00,,---,0.00,VWS V14.00,2013-03-29 20:33:00,
2013-03-29 14:34:00,48.0,23.0,0.00,SE,132,4.5,4.5,37,0.00,,---,0.00,VWS V14.00,2013-03-29 20:34:00,
2013-03-29 14:35:00,48.0,23.0,0.00,South,169,3.6,5.8,37,0.00,,---,0.00,VWS V14.00,2013-03-29 20:35:00,
2013-03-29 14:38:00,48.2,23.2,0.00,South,187,3.6,3.6,37,0.00,,---,0.00,VWS V14.00,2013-03-29 20:38:00,
2013-03-29 14:39:00,48.2,23.2,0.00,South,170,3.6,4.0,37,0.00,,---,0.00,VWS V14.00,2013-03-29 20:39:00,
2013-03-29 14:40:00,48.2,23.2,0.00,SSW,193,0.0,4.0,37,0.00,,---,0.00,VWS V14.00,2013-03-29 20:40:00,
2013-03-29 14:43:00,48.2,23.2,0.00,South,172,3.1,3.1,37,0.00,,---,0.00,VWS V14.00,2013-03-29 20:43:00,
2013-03-29 14:44:00,48.4,23.3,0.00,SW,220,0.0,0.0,37,0.00,,---,0.00,VWS V14.00,2013-03-29 20:44:00,
2013-03-29 14:45:00,48.4,23.3,0.00,SW,217,0.0,0.0,37,0.00,,---,0.00,VWS V14.00,2013-03-29 20:45:00,
2013-03-29 14:48:00,48.4,22.7,0.00,SW,220,0.0,0.0,36,0.00,,---,0.00,VWS V14.00,2013-03-29 20:48:00,
2013-03-29 14:49:00,48.4,22.7,0.00,SW,220,0.0,0.0,36,0.00,,---,0.00,VWS V14.00,2013-03-29 20:49:00,
2013-03-29 14:50:00,48.4,22.7,0.00,ESE,117,4.0,4.9,36,0.00,,---,0.00,VWS V14.00,2013-03-29 20:50:00,
2013-03-29 14:53:00,48.6,22.8,0.00,SW,219,0.0,6.3,36,0.00,,---,0.00,VWS V14.00,2013-03-29 20:53:00,
2013-03-29 14:54:00,48.6,22.8,0.00,SSE,149,2.7,2.7,36,0.00,,---,0.00,VWS V14.00,2013-03-29 20:54:00,
2013-03-29 14:55:00,48.6,22.8,0.00,South,184,3.1,3.1,36,0.00,,---,0.00,VWS V14.00,2013-03-29 20:55:00,
2013-03-29 14:56:00,48.4,22.7,0.00,South,182,2.2,2.7,36,0.00,,---,0.00,VWS V14.00,2013-03-29 20:56:00,
2013-03-29 14:58:00,48.4,22.7,0.00,SSW,194,4.9,4.9,36,0.00,,---,0.00,VWS V14.00,2013-03-29 20:58:00,
2013-03-29 14:59:00,48.6,23.5,0.00,SSW,199,0.0,2.7,37,0.00,,---,0.00,VWS V14.00,2013-03-29 20:59:00,
2013-03-29 15:00:00,48.6,23.5,0.00,ESE,110,4.0,4.0,37,0.00,,---,0.00,VWS V14.00,2013-03-29 21:00:00,
2013-03-29 15:01:00,48.6,23.5,0.00,ESE,117,4.0,5.8,37,0.00,,---,0.00,VWS V14.00,2013-03-29 21:01:00,
2013-03-29 15:03:00,48.7,23.6,0.00,SE,139,5.4,5.4,37,0.00,,---,0.00,VWS V14.00,2013-03-29 21:03:00,
2013-03-29 15:04:00,48.7,23.6,0.00,ESE,108,5.4,6.3,37,0.00,,---,0.00,VWS V14.00,2013-03-29 21:04:00,
2013-03-29 15:05:00,48.7,23.6,0.00,East,82,4.0,6.3,37,0.00,,---,0.00,VWS V14.00,2013-03-29 21:05:00,
2013-03-29 15:06:00,48.7,23.6,0.00,ESE,106,3.1,4.0,37,0.00,,---,0.00,VWS V14.00,2013-03-29 21:06:00,
2013-03-29 15:08:00,48.7,23.0,0.00,ESE,109,6.3,6.3,36,0.00,,---,0.00,VWS V14.00,2013-03-29 21:08:00,
2013-03-29 15:09:00,48.7,23.0,0.00,SW,222,7.2,8.7,36,0.00,,---,0.00,VWS V14.00,2013-03-29 21:09:00,
2013-03-29 15:10:00,48.7,23.0,0.00,ESE,113,4.0,4.0,36,0.00,,---,0.00,VWS V14.00,2013-03-29 21:10:00,
2013-03-29 15:11:00,48.7,23.0,0.00,East,97,5.8,6.3,36,0.00,,---,0.00,VWS V14.00,2013-03-29 21:11:00,
2013-03-29 15:13:00,48.7,23.0,0.00,SE,141,4.9,5.4,36,0.00,,---,0.00,VWS V14.00,2013-03-29 21:13:00,
2013-03-29 15:14:00,48.7,23.0,0.00,SSE,148,4.0,8.7,36,0.00,,---,0.00,VWS V14.00,2013-03-29 21:14:00,
2013-03-29 15:15:00,48.7,23.0,0.00,ENE,68,5.8,8.3,36,0.00,,---,0.00,VWS V14.00,2013-03-29 21:15:00,
2013-03-29 15:16:00,48.7,23.0,0.00,SSE,150,8.1,12.3,36,0.00,,---,0.00,VWS V14.00,2013-03-29 21:16:00,
2013-03-29 15:19:00,48.6,23.5,0.00,ESE,121,10.1,10.1,37,0.00,,---,0.00,VWS V14.00,2013-03-29 21:19:00,
2013-03-29 15:20:00,48.4,23.3,0.00,SE,135,6.3,8.3,37,0.00,,---,0.00,VWS V14.00,2013-03-29 21:20:00,
2013-03-29 15:22:00,48.4,23.3,0.00,East,100,6.3,6.3,37,0.00,,---,0.00,VWS V14.00,2013-03-29 21:22:00,
2013-03-29 15:24:00,48.2,23.2,0.00,SE,145,6.3,6.3,37,0.00,,---,0.00,VWS V14.00,2013-03-29 21:24:00,
2013-03-29 15:25:00,48.0,23.6,0.00,ESE,120,5.8,8.3,38,0.00,,---,0.00,VWS V14.00,2013-03-29 21:25:00,
2013-03-29 15:27:00,47.8,23.5,0.00,East,84,2.7,3.6,38,0.00,,---,0.00,VWS V14.00,2013-03-29 21:27:00,
2013-03-29 15:29:00,47.8,23.5,0.00,East,81,2.7,2.7,38,0.00,,---,0.00,VWS V14.00,2013-03-29 21:29:00,
2013-03-29 15:30:00,47.8,24.1,0.00,SE,131,2.7,4.0,39,0.00,,---,0.00,VWS V14.00,2013-03-29 21:30:00,
2013-03-29 15:32:00,47.8,24.1,0.00,East,101,4.0,4.0,39,0.00,,---,0.00,VWS V14.00,2013-03-29 21:32:00,
2013-03-29 15:34:00,48.0,24.3,0.00,East,91,0.0,2.2,39,0.00,,---,0.00,VWS V14.00,2013-03-29 21:34:00,
2013-03-29 15:35:00,48.0,24.3,0.00,ESE,116,2.7,2.7,39,0.00,,---,0.00,VWS V14.00,2013-03-29 21:35:00,
2013-03-29 15:37:00,48.2,24.4,0.00,NNW,339,0.0,2.2,39,0.00,,---,0.00,VWS V14.00,2013-03-29 21:37:00,
2013-03-29 15:39:00,48.4,24.6,0.00,ESE,105,4.0,4.0,39,0.00,,---,0.00,VWS V14.00,2013-03-29 21:39:00,
2013-03-29 15:40:00,48.4,24.6,0.00,ENE,69,3.6,4.0,39,0.00,,---,0.00,VWS V14.00,2013-03-29 21:40:00,
2013-03-29 15:42:00,48.7,25.5,0.00,SE,127,4.0,4.0,40,0.00,,---,0.00,VWS V14.00,2013-03-29 21:42:00,
2013-03-29 15:44:00,48.7,24.9,0.00,SSW,204,2.2,4.0,39,0.00,,---,0.00,VWS V14.00,2013-03-29 21:44:00,
2013-03-29 15:45:00,48.9,25.1,0.00,WSW,241,0.0,0.0,39,0.00,,---,0.00,VWS V14.00,2013-03-29 21:45:00,
2013-03-29 15:47:00,49.1,25.2,0.00,SE,142,2.2,4.0,39,0.00,,---,0.00,VWS V14.00,2013-03-29 21:47:00,
2013-03-29 15:49:00,49.5,25.5,0.00,SE,131,0.0,2.7,39,0.00,,---,0.00,VWS V14.00,2013-03-29 21:49:00,
2013-03-29 15:50:00,49.5,25.5,0.00,SE,131,0.0,2.7,39,0.00,,---,0.00,VWS V14.00,2013-03-29 21:50:00,
2013-03-29 15:52:00,49.8,25.9,0.00,ESE,118,5.8,5.8,39,0.00,,---,0.00,VWS V14.00,2013-03-29 21:52:00,
2013-03-29 15:54:00,50.0,25.4,0.00,East,92,5.8,5.8,38,0.00,,---,0.00,VWS V14.00,2013-03-29 21:54:00,
2013-03-29 15:55:00,50.0,25.4,0.00,ESE,108,3.6,5.8,38,0.00,,---,0.00,VWS V14.00,2013-03-29 21:55:00,
2013-03-29 15:58:00,50.4,25.7,0.00,WSW,258,2.7,2.7,38,0.00,,---,0.00,VWS V14.00,2013-03-29 21:58:00,
2013-03-29 15:59:00,50.5,25.9,0.00,WSW,256,0.0,0.0,38,0.00,,---,0.00,VWS V14.00,2013-03-29 21:59:00,
2013-03-29 16:00:00,50.5,25.9,0.00,ENE,73,2.7,2.7,38,0.00,,---,0.00,VWS V14.00,2013-03-29 22:00:00,
2013-03-29 16:03:00,50.7,25.4,0.00,East,87,3.1,3.6,37,0.00,,---,0.00,VWS V14.00,2013-03-29 22:03:00,
2013-03-29 16:04:00,50.9,26.2,0.00,ESE,110,4.0,4.0,38,0.00,,---,0.00,VWS V14.00,2013-03-29 22:04:00,
2013-03-29 16:05:00,51.1,26.4,0.00,SE,125,3.6,4.0,38,0.00,,---,0.00,VWS V14.00,2013-03-29 22:05:00,
2013-03-29 16:08:00,51.3,25.9,0.00,WSW,249,0.0,2.7,37,0.00,,---,0.00,VWS V14.00,2013-03-29 22:08:00,
2013-03-29 16:09:00,51.4,26.0,0.00,SSW,210,0.0,0.0,37,0.00,,---,0.00,VWS V14.00,2013-03-29 22:09:00,
2013-03-29 16:10:00,51.4,26.0,0.00,South,182,2.7,2.7,37,0.00,,---,0.00,VWS V14.00,2013-03-29 22:10:00,
2013-03-29 16:13:00,51.4,25.4,0.00,SE,128,3.6,3.6,36,0.00,,---,0.00,VWS V14.00,2013-03-29 22:13:00,
2013-03-29 16:14:00,51.4,25.4,0.00,SSW,204,4.9,8.3,36,0.00,,---,0.00,VWS V14.00,2013-03-29 22:14:00,
2013-03-29 16:15:00,51.4,25.4,0.00,ESE,108,4.0,4.9,36,0.00,,---,0.00,VWS V14.00,2013-03-29 22:15:00,
2013-03-29 16:18:00,51.4,25.4,0.00,NE,54,5.8,5.8,36,0.00,,---,0.00,VWS V14.00,2013-03-29 22:18:00,
2013-03-29 16:20:00,51.4,25.4,0.00,ENE,76,7.2,11.9,36,0.00,,---,0.00,VWS V14.00,2013-03-29 22:20:00,
2013-03-29 16:23:00,51.3,25.2,0.00,ESE,122,11.0,13.2,36,0.00,,---,0.00,VWS V14.00,2013-03-29 22:23:00,
2013-03-29 16:25:00,51.1,25.1,0.00,ESE,109,13.2,13.2,36,0.00,,---,0.00,VWS V14.00,2013-03-29 22:25:00,
2013-03-29 16:26:00,50.9,24.9,0.00,East,82,8.1,8.1,36,0.00,,---,0.00,VWS V14.00,2013-03-29 22:26:00,
2013-03-29 16:28:00,50.7,24.8,0.00,ESE,118,5.4,12.3,36,0.00,,---,0.00,VWS V14.00,2013-03-29 22:28:00,
2013-03-29 16:30:00,50.5,24.6,0.00,East,97,7.6,10.1,36,0.00,,---,0.00,VWS V14.00,2013-03-29 22:30:00,
2013-03-29 16:31:00,50.4,24.4,0.00,ESE,110,5.8,5.8,36,0.00,,---,0.00,VWS V14.00,2013-03-29 22:31:00,
2013-03-29 16:33:00,50.0,24.1,0.00,East,82,8.7,8.7,36,0.00,,---,0.00,VWS V14.00,2013-03-29 22:33:00,
2013-03-29 16:35:00,50.0,24.1,0.00,SE,133,6.3,10.1,36,0.00,,---,0.00,VWS V14.00,2013-03-29 22:35:00,
2013-03-29 16:36:00,49.8,24.6,0.00,SSE,152,5.4,8.3,37,0.00,,---,0.00,VWS V14.00,2013-03-29 22:36:00,
2013-03-29 16:38:00,49.6,24.5,0.00,East,98,9.2,9.2,37,0.00,,---,0.00,VWS V14.00,2013-03-29 22:38:00,
2013-03-29 16:40:00,49.5,24.3,0.00,East,97,5.4,8.7,37,0.00,,---,0.00,VWS V14.00,2013-03-29 22:40:00,
2013-03-29 16:41:00,49.3,24.1,0.00,ESE,113,10.1,11.4,37,0.00,,---,0.00,VWS V14.00,2013-03-29 22:41:00,
2013-03-29 16:43:00,49.3,24.1,0.00,SE,137,8.3,8.3,37,0.00,,---,0.00,VWS V14.00,2013-03-29 22:43:00,
2013-03-29 16:45:00,48.9,23.8,0.00,East,94,12.3,12.3,37,0.00,,---,0.00,VWS V14.00,2013-03-29 22:45:00,
2013-03-29 16:46:00,48.9,23.8,0.00,SE,134,6.3,15.0,37,0.00,,---,0.00,VWS V14.00,2013-03-29 22:46:00,
2013-03-29 16:49:00,48.7,23.6,0.00,ESE,119,10.5,10.5,37,0.00,,---,0.00,VWS V14.00,2013-03-29 22:49:00,
2013-03-29 16:50:00,48.7,23.6,0.00,East,99,6.3,8.3,37,0.00,,---,0.00,VWS V14.00,2013-03-29 22:50:00,
2013-03-29 16:52:00,48.7,23.6,0.00,SE,134,5.4,7.6,37,0.00,,---,0.00,VWS V14.00,2013-03-29 22:52:00,
2013-03-29 16:54:00,48.6,23.5,0.00,ESE,109,4.0,4.9,37,0.00,,---,0.00,VWS V14.00,2013-03-29 22:54:00,
2013-03-29 16:55:00,48.6,23.5,0.00,ESE,122,3.6,5.8,37,0.00,,---,0.00,VWS V14.00,2013-03-29 22:55:00,
2013-03-29 16:57:00,48.6,23.5,0.00,SE,134,4.9,10.5,37,0.00,,---,0.00,VWS V14.00,2013-03-29 22:57:00,
2013-03-29 16:59:00,48.6,23.5,0.00,ESE,109,5.4,6.7,37,0.00,,---,0.00,VWS V14.00,2013-03-29 22:59:00,
2013-03-29 17:00:00,48.6,23.5,0.00,SSE,153,5.8,5.8,37,0.00,,---,0.00,VWS V14.00,2013-03-29 23:00:00,
2013-03-29 17:02:00,48.6,23.5,0.00,NE,52,3.1,4.0,37,0.00,,---,0.00,VWS V14.00,2013-03-29 23:02:00,
2013-03-29 17:04:00,48.6,23.5,0.00,ESE,122,3.1,4.9,37,0.00,,---,0.00,VWS V14.00,2013-03-29 23:04:00,
2013-03-29 17:05:00,48.4,23.3,0.00,South,185,2.2,2.7,37,0.00,,---,0.00,VWS V14.00,2013-03-29 23:05:00,
2013-03-29 17:07:00,48.2,23.2,0.00,ESE,104,6.3,6.3,37,0.00,,---,0.00,VWS V14.00,2013-03-29 23:07:00,
2013-03-29 17:09:00,48.2,23.2,0.00,ESE,118,8.1,8.3,37,0.00,,---,0.00,VWS V14.00,2013-03-29 23:09:00,
2013-03-29 17:10:00,48.2,23.2,0.00,East,95,6.3,10.1,37,0.00,,---,0.00,VWS V14.00,2013-03-29 23:10:00,
2013-03-29 17:12:00,48.0,23.0,0.00,East,95,5.4,7.2,37,0.00,,---,0.00,VWS V14.00,2013-03-29 23:12:00,
2013-03-29 17:14:00,48.0,23.0,0.00,ESE,119,3.6,5.4,37,0.00,,---,0.00,VWS V14.00,2013-03-29 23:14:00,
2013-03-29 17:15:00,47.8,22.9,0.00,NE,47,10.5,10.5,37,0.00,,---,0.00,VWS V14.00,2013-03-29 23:15:00,
2013-03-29 17:17:00,47.7,22.7,0.00,East,94,6.3,9.6,37,0.00,,---,0.00,VWS V14.00,2013-03-29 23:17:00,
2013-03-29 17:19:00,47.7,22.7,0.00,ENE,73,10.5,10.5,37,0.00,,---,0.00,VWS V14.00,2013-03-29 23:19:00,
2013-03-29 17:20:00,47.5,22.5,0.00,SSE,152,5.8,8.7,37,0.00,,---,0.00,VWS V14.00,2013-03-29 23:20:00,
2013-03-29 17:22:00,47.3,22.4,0.00,SSE,160,10.1,10.1,37,0.00,,---,0.00,VWS V14.00,2013-03-29 23:22:00,
2013-03-29 17:23:00,47.3,22.4,0.00,East,98,10.5,10.5,37,0.00,,---,0.00,VWS V14.00,2013-03-29 23:23:00,
2013-03-29 17:24:00,47.3,22.4,0.00,ENE,60,8.1,8.1,37,0.00,,---,0.00,VWS V14.00,2013-03-29 23:24:00,
2013-03-29 17:26:00,47.3,22.4,0.00,SE,136,5.4,5.8,37,0.00,,---,0.00,VWS V14.00,2013-03-29 23:26:00,
2013-03-29 17:28:00,47.3,22.4,0.00,SE,140,4.0,4.0,37,0.00,,---,0.00,VWS V14.00,2013-03-29 23:28:00,
2013-03-29 17:29:00,47.3,22.4,0.00,East,90,4.9,11.4,37,0.00,,---,0.00,VWS V14.00,2013-03-29 23:29:00,
2013-03-29 17:31:00,47.1,22.2,0.00,ESE,122,6.3,6.3,37,0.00,,---,0.00,VWS V14.00,2013-03-29 23:31:00,
2013-03-29 17:33:00,47.1,22.2,0.00,ESE,106,10.5,10.5,37,0.00,,---,0.00,VWS V14.00,2013-03-29 23:33:00,
2013-03-29 17:34:00,47.1,22.2,0.00,ESE,120,11.0,11.0,37,0.00,,---,0.00,VWS V14.00,2013-03-29 23:34:00,
2013-03-29 17:36:00,47.1,22.2,0.00,SE,143,5.4,6.3,37,0.00,,---,0.00,VWS V14.00,2013-03-29 23:36:00,
2013-03-29 17:38:00,46.9,22.0,0.00,SSE,164,2.7,2.7,37,0.00,,---,0.00,VWS V14.00,2013-03-29 23:38:00,
2013-03-29 17:40:00,46.9,22.0,0.00,South,178,0.0,2.7,37,0.00,,---,0.00,VWS V14.00,2013-03-29 23:40:00,
2013-03-29 17:41:00,46.8,21.9,0.00,SE,130,8.3,15.0,37,0.00,,---,0.00,VWS V14.00,2013-03-29 23:41:00,
2013-03-29 17:43:00,46.8,21.9,0.00,ESE,120,8.3,8.3,37,0.00,,---,0.00,VWS V14.00,2013-03-29 23:43:00,
2013-03-29 17:45:00,46.8,21.9,0.00,East,86,5.4,5.4,37,0.00,,---,0.00,VWS V14.00,2013-03-29 23:45:00,
2013-03-29 17:46:00,46.8,21.9,0.00,SSE,159,8.7,8.7,37,0.00,,---,0.00,VWS V14.00,2013-03-29 23:46:00,
2013-03-29 17:48:00,46.8,21.9,0.00,ESE,102,11.0,11.0,37,0.00,,---,0.00,VWS V14.00,2013-03-29 23:48:00,
2013-03-29 17:49:00,46.8,21.9,0.00,SSE,149,8.3,11.0,37,0.00,,---,0.00,VWS V14.00,2013-03-29 23:49:00,
2013-03-29 17:50:00,46.6,21.7,0.00,SE,141,5.4,8.1,37,0.00,,---,0.00,VWS V14.00,2013-03-29 23:50:00,
2013-03-29 17:51:00,46.6,21.7,0.00,East,79,6.3,8.1,37,0.00,,---,0.00,VWS V14.00,2013-03-29 23:51:00,
2013-03-29 17:53:00,46.6,21.7,0.00,ENE,68,4.5,7.6,37,0.00,,---,0.00,VWS V14.00,2013-03-29 23:53:00,
2013-03-29 17:54:00,46.6,21.7,0.00,SSE,152,5.4,5.4,37,0.00,,---,0.00,VWS V14.00,2013-03-29 23:54:00,
2013-03-29 17:55:00,46.6,21.7,0.00,ESE,118,5.4,5.8,37,0.00,,---,0.00,VWS V14.00,2013-03-29 23:55:00,
2013-03-29 17:57:00,46.6,21.7,0.00,ESE,106,8.3,8.3,37,0.00,,---,0.00,VWS V14.00,2013-03-29 23:57:00,
2013-03-29 17:58:00,46.4,21.6,0.00,SE,136,8.7,8.7,37,0.00,,---,0.00,VWS V14.00,2013-03-29 23:58:00,
2013-03-29 17:59:00,46.4,21.6,0.00,ESE,104,8.3,8.7,37,0.00,,---,0.00,VWS V14.00,2013-03-29 23:59:00,
2013-03-29 18:00:00,46.4,21.6,0.00,East,91,6.3,8.1,37,0.00,,---,0.00,VWS V14.00,2013-03-30 00:00:00,
2013-03-29 18:02:00,46.4,21.6,0.00,NE,56,8.3,8.3,37,0.00,,---,0.00,VWS V14.00,2013-03-30 00:02:00,
2013-03-29 18:03:00,46.2,21.4,0.00,SSE,148,10.5,11.0,37,0.00,,---,0.00,VWS V14.00,2013-03-30 00:03:00,
2013-03-29 18:04:00,46.2,22.0,0.00,SE,134,7.2,10.5,38,0.00,,---,0.00,VWS V14.00,2013-03-30 00:04:00,
2013-03-29 18:05:00,46.2,21.4,0.00,SE,140,5.8,5.8,37,0.00,,---,0.00,VWS V14.00,2013-03-30 00:05:00,
2013-03-29 18:07:00,46.2,21.4,0.00,ESE,115,5.8,10.1,37,0.00,,---,0.00,VWS V14.00,2013-03-30 00:07:00,
2013-03-29 18:08:00,46.0,21.2,0.00,SE,126,4.9,4.9,37,0.00,,---,0.00,VWS V14.00,2013-03-30 00:08:00,
2013-03-29 18:09:00,46.0,21.2,0.00,SE,127,5.4,5.4,37,0.00,,---,0.00,VWS V14.00,2013-03-30 00:09:00,
2013-03-29 18:10:00,46.0,21.2,0.00,SE,141,7.6,8.3,37,0.00,,---,0.00,VWS V14.00,2013-03-30 00:10:00,
2013-03-29 18:12:00,45.9,21.1,0.00,ESE,112,6.3,6.3,37,0.00,,---,0.00,VWS V14.00,2013-03-30 00:12:00,
2013-03-29 18:14:00,45.9,21.1,0.00,ESE,121,4.0,8.3,37,0.00,,---,0.00,VWS V14.00,2013-03-30 00:14:00,
2013-03-29 18:15:00,45.9,21.1,0.00,SE,126,11.0,11.0,37,0.00,,---,0.00,VWS V14.00,2013-03-30 00:15:00,
2013-03-29 18:17:00,45.5,20.8,0.00,East,101,8.7,13.2,37,0.00,,---,0.00,VWS V14.00,2013-03-30 00:17:00,
2013-03-29 18:19:00,45.5,20.8,0.00,ESE,118,4.9,8.1,37,0.00,,---,0.00,VWS V14.00,2013-03-30 00:19:00,
2013-03-29 18:20:00,45.5,20.8,0.00,ESE,110,6.3,7.6,37,0.00,,---,0.00,VWS V14.00,2013-03-30 00:20:00,
2013-03-29 18:23:00,45.3,20.6,0.00,ESE,107,5.8,6.3,37,0.00,,---,0.00,VWS V14.00,2013-03-30 00:23:00,
2013-03-29 18:24:00,45.1,20.4,0.00,SE,137,5.8,7.6,37,0.00,,---,0.00,VWS V14.00,2013-03-30 00:24:00,
2013-03-29 18:25:00,45.1,20.4,0.00,ESE,119,5.8,10.1,37,0.00,,---,0.00,VWS V14.00,2013-03-30 00:25:00,
2013-03-29 18:28:00,44.8,20.1,0.00,ESE,119,8.7,8.7,37,0.00,,---,0.00,VWS V14.00,2013-03-30 00:28:00,
2013-03-29 18:29:00,44.8,20.1,0.00,ESE,105,10.1,10.1,37,0.00,,---,0.00,VWS V14.00,2013-03-30 00:29:00,
2013-03-29 18:31:00,44.8,20.1,0.00,SSE,151,5.4,10.1,37,0.00,,---,0.00,VWS V14.00,2013-03-30 00:31:00,
2013-03-29 18:33:00,44.6,20.0,0.00,ESE,116,8.3,8.3,37,0.00,,---,0.00,VWS V14.00,2013-03-30 00:33:00,
2013-03-29 18:34:00,44.4,20.4,0.00,ESE,104,5.4,10.5,38,0.00,,---,0.00,VWS V14.00,2013-03-30 00:34:00,
2013-03-29 18:36:00,44.2,20.3,0.00,SE,138,7.2,11.4,38,0.00,,---,0.00,VWS V14.00,2013-03-30 00:36:00,
2013-03-29 18:38:00,44.2,20.3,0.00,ESE,113,8.1,10.5,38,0.00,,---,0.00,VWS V14.00,2013-03-30 00:38:00,
2013-03-29 18:39:00,44.1,20.1,0.00,South,170,8.3,8.3,38,0.00,,---,0.00,VWS V14.00,2013-03-30 00:39:00,
2013-03-29 18:41:00,44.1,20.1,0.00,ENE,69,11.0,11.0,38,0.00,,---,0.00,VWS V14.00,2013-03-30 00:41:00,
2013-03-29 18:43:00,43.9,19.9,0.00,ESE,114,10.5,10.5,38,0.00,,---,0.00,VWS V14.00,2013-03-30 00:43:00,
2013-03-29 18:44:00,43.7,19.8,0.00,East,99,5.8,13.6,38,0.00,,---,0.00,VWS V14.00,2013-03-30 00:44:00,
2013-03-29 18:46:00,43.7,19.8,0.00,ESE,114,6.3,8.3,38,0.00,,---,0.00,VWS V14.00,2013-03-30 00:46:00,
2013-03-29 18:48:00,43.5,19.6,0.00,East,83,11.0,11.0,38,0.00,,---,0.00,VWS V14.00,2013-03-30 00:48:00,
2013-03-29 18:49:00,43.5,19.6,0.00,ESE,106,10.5,10.5,38,0.00,,---,0.00,VWS V14.00,2013-03-30 00:49:00,
2013-03-29 18:51:00,43.3,19.5,0.00,ESE,110,5.8,7.6,38,0.00,,---,0.00,VWS V14.00,2013-03-30 00:51:00,
2013-03-29 18:53:00,43.2,19.3,0.00,ESE,103,5.8,8.7,38,0.00,,---,0.00,VWS V14.00,2013-03-30 00:53:00,
2013-03-29 18:54:00,43.2,19.3,0.00,ESE,122,4.9,6.3,38,0.00,,---,0.00,VWS V14.00,2013-03-30 00:54:00,
2013-03-29 18:55:00,43.2,19.3,0.00,ESE,110,5.4,5.4,38,0.00,,---,0.00,VWS V14.00,2013-03-30 00:55:00,
2013-03-29 18:57:00,43.0,19.1,0.00,SE,132,8.3,8.3,38,0.00,,---,0.00,VWS V14.00,2013-03-30 00:57:00,
2013-03-29 18:58:00,43.0,19.1,0.00,ESE,122,6.3,6.3,38,0.00,,---,0.00,VWS V14.00,2013-03-30 00:58:00,
2013-03-29 18:59:00,42.8,19.0,0.00,SE,129,4.0,5.8,38,0.00,,---,0.00,VWS V14.00,2013-03-30 00:59:00,
2013-03-29 19:00:00,42.8,19.0,0.00,SSE,150,4.9,5.8,38,0.00,,---,0.00,VWS V14.00,2013-03-30 01:00:00,
2013-03-29 19:02:00,42.8,19.0,0.00,ESE,114,8.1,8.7,38,0.00,,---,0.00,VWS V14.00,2013-03-30 01:02:00,
2013-03-29 19:04:00,42.6,18.8,0.00,ESE,117,4.0,4.0,38,0.00,,---,0.00,VWS V14.00,2013-03-30 01:04:00,
2013-03-29 19:05:00,42.4,18.6,0.00,SE,141,8.7,8.7,38,0.00,,---,0.00,VWS V14.00,2013-03-30 01:05:00,
2013-03-29 19:07:00,42.3,19.1,0.00,East,81,8.7,8.7,39,0.00,,---,0.00,VWS V14.00,2013-03-30 01:07:00,
2013-03-29 19:09:00,42.3,19.1,0.00,ESE,114,4.9,8.3,39,0.00,,---,0.00,VWS V14.00,2013-03-30 01:09:00,
2013-03-29 19:10:00,42.3,19.1,0.00,ESE,106,6.3,6.3,39,0.00,,---,0.00,VWS V14.00,2013-03-30 01:10:00,
2013-03-29 19:12:00,42.1,18.9,0.00,ESE,110,5.4,9.6,39,0.00,,---,0.00,VWS V14.00,2013-03-30 01:12:00,
2013-03-29 19:14:00,42.1,18.9,0.00,ESE,116,5.8,5.8,39,0.00,,---,0.00,VWS V14.00,2013-03-30 01:14:00,
2013-03-29 19:15:00,41.9,18.8,0.00,SE,131,5.8,11.0,39,0.00,,---,0.00,VWS V14.00,2013-03-30 01:15:00,
2013-03-29 19:17:00,41.7,18.6,0.00,SE,138,8.7,13.2,39,0.00,,---,0.00,VWS V14.00,2013-03-30 01:17:00,
2013-03-29 19:19:00,41.7,18.6,0.00,ESE,122,7.6,8.1,39,0.00,,---,0.00,VWS V14.00,2013-03-30 01:19:00,
2013-03-29 19:20:00,41.5,18.4,0.00,East,100,8.3,10.1,39,0.00,,---,0.00,VWS V14.00,2013-03-30 01:20:00,
2013-03-29 19:21:00,41.5,18.4,0.00,SE,144,5.8,7.6,39,0.00,,---,0.00,VWS V14.00,2013-03-30 01:21:00,
2013-03-29 19:23:00,41.5,18.4,0.00,ESE,112,11.9,14.5,39,0.00,,---,0.00,VWS V14.00,2013-03-30 01:23:00,
2013-03-29 19:24:00,41.4,18.3,0.00,SE,134,5.4,8.1,39,0.00,,---,0.00,VWS V14.00,2013-03-30 01:24:00,
2013-03-29 19:25:00,41.2,18.1,0.00,ESE,103,4.0,11.0,39,0.00,,---,0.00,VWS V14.00,2013-03-30 01:25:00,
2013-03-29 19:26:00,41.2,18.1,0.00,NE,49,7.2,12.3,39,0.00,,---,0.00,VWS V14.00,2013-03-30 01:26:00,
2013-03-29 19:28:00,41.2,18.1,0.00,ESE,105,8.1,8.1,39,0.00,,---,0.00,VWS V14.00,2013-03-30 01:28:00,
2013-03-29 19:29:00,41.0,18.0,0.00,East,88,6.7,6.7,39,0.00,,---,0.00,VWS V14.00,2013-03-30 01:29:00,
2013-03-29 19:30:00,41.0,18.0,0.00,ESE,119,4.0,10.5,39,0.00,,---,0.00,VWS V14.00,2013-03-30 01:30:00,
2013-03-29 19:32:00,41.0,18.0,0.00,ESE,104,3.6,3.6,39,0.00,,---,0.00,VWS V14.00,2013-03-30 01:32:00,
2013-03-29 19:33:00,41.0,18.0,0.00,ESE,108,6.3,6.3,39,0.00,,---,0.00,VWS V14.00,2013-03-30 01:33:00,
2013-03-29 19:34:00,40.8,17.8,0.00,ENE,72,4.9,4.9,39,0.00,,---,0.00,VWS V14.00,2013-03-30 01:34:00,
2013-03-29 19:35:00,40.8,18.4,0.00,East,97,3.6,5.4,40,0.00,,---,0.00,VWS V14.00,2013-03-30 01:35:00,
2013-03-29 19:37:00,40.6,18.2,0.00,ESE,114,4.9,4.9,40,0.00,,---,0.00,VWS V14.00,2013-03-30 01:37:00,
2013-03-29 19:38:00,40.6,18.2,0.00,SE,137,3.1,4.9,40,0.00,,---,0.00,VWS V14.00,2013-03-30 01:38:00,
2013-03-29 19:40:00,40.6,18.2,0.00,NNE,30,3.1,3.1,40,0.00,,---,0.00,VWS V14.00,2013-03-30 01:40:00,
2013-03-29 19:41:00,40.6,18.2,0.00,ESE,113,3.1,8.3,40,0.00,,---,0.00,VWS V14.00,2013-03-30 01:41:00,
2013-03-29 19:42:00,40.5,18.1,0.00,East,101,5.4,6.3,40,0.00,,---,0.00,VWS V14.00,2013-03-30 01:42:00,
2013-03-29 19:43:00,40.5,18.1,0.00,ESE,116,4.9,4.9,40,0.00,,---,0.00,VWS V14.00,2013-03-30 01:43:00,
2013-03-29 19:45:00,40.5,18.1,0.00,SE,125,5.4,5.4,40,0.00,,---,0.00,VWS V14.00,2013-03-30 01:45:00,
2013-03-29 19:46:00,40.5,18.1,0.00,East,96,3.6,3.6,40,0.00,,---,0.00,VWS V14.00,2013-03-30 01:46:00,
2013-03-29 19:48:00,40.3,17.9,0.00,ESE,103,3.6,3.6,40,0.00,,---,0.00,VWS V14.00,2013-03-30 01:48:00,
2013-03-29 19:50:00,40.3,17.9,0.00,East,97,2.7,2.7,40,0.00,,---,0.00,VWS V14.00,2013-03-30 01:50:00,
2013-03-29 19:51:00,40.1,17.7,0.00,East,80,2.7,3.1,40,0.00,,---,0.00,VWS V14.00,2013-03-30 01:51:00,
2013-03-29 19:53:00,39.9,17.6,0.00,ESE,106,3.1,3.1,40,0.00,,---,0.00,VWS V14.00,2013-03-30 01:53:00,
2013-03-29 19:55:00,39.9,17.6,0.00,SSW,204,4.0,5.4,40,0.00,,---,0.00,VWS V14.00,2013-03-30 01:55:00,
2013-03-29 19:56:00,39.9,17.6,0.00,SE,143,5.4,5.4,40,0.00,,---,0.00,VWS V14.00,2013-03-30 01:56:00,
2013-03-29 19:58:00,39.7,17.4,0.00,ESE,119,5.8,5.8,40,0.00,,---,0.00,VWS V14.00,2013-03-30 01:58:00,
2013-03-29 20:00:00,39.7,17.4,0.00,ESE,118,6.3,6.3,40,0.00,,---,0.00,VWS V14.00,2013-03-30 02:00:00,
2013-03-29 20:01:00,39.6,17.2,0.00,ENE,73,5.8,5.8,40,0.00,,---,0.00,VWS V14.00,2013-03-30 02:01:00,
2013-03-29 20:03:00,39.6,17.2,0.00,ESE,123,4.9,6.3,40,0.00,,---,0.00,VWS V14.00,2013-03-30 02:03:00,
2013-03-29 20:05:00,39.4,17.1,0.00,South,179,3.1,5.4,40,0.00,,---,0.00,VWS V14.00,2013-03-30 02:05:00,
2013-03-29 20:07:00,39.4,17.1,0.00,ESE,113,3.6,6.3,40,0.00,,---,0.00,VWS V14.00,2013-03-30 02:07:00,
2013-03-29 20:08:00,39.4,17.1,0.00,SE,124,4.0,4.0,40,0.00,,---,0.00,VWS V14.00,2013-03-30 02:08:00,
2013-03-29 20:10:00,39.2,16.9,0.00,ENE,77,4.0,5.4,40,0.00,,---,0.00,VWS V14.00,2013-03-30 02:10:00,
2013-03-29 20:12:00,39.2,16.9,0.00,SSW,193,0.0,0.0,40,0.00,,---,0.00,VWS V14.00,2013-03-30 02:12:00,
2013-03-29 20:13:00,39.2,16.9,0.00,SE,124,2.7,2.7,40,0.00,,---,0.00,VWS V14.00,2013-03-30 02:13:00,
2013-03-29 20:15:00,39.0,17.3,0.00,SSE,167,0.0,0.0,41,0.00,,---,0.00,VWS V14.00,2013-03-30 02:15:00,
2013-03-29 20:17:00,39.0,17.3,0.00,SSE,164,0.0,0.0,41,0.00,,---,0.00,VWS V14.00,2013-03-30 02:17:00,
2013-03-29 20:18:00,38.8,17.2,0.00,NE,55,0.0,2.7,41,0.00,,---,0.00,VWS V14.00,2013-03-30 02:18:00,
2013-03-29 20:20:00,38.8,17.2,0.00,NE,54,0.0,0.0,41,0.00,,---,0.00,VWS V14.00,2013-03-30 02:20:00,
2013-03-29 20:22:00,38.8,17.2,0.00,NNW,330,0.0,0.0,41,0.00,,---,0.00,VWS V14.00,2013-03-30 02:22:00,
2013-03-29 20:23:00,38.8,17.2,0.00,NNW,330,0.0,0.0,41,0.00,,---,0.00,VWS V14.00,2013-03-30 02:23:00,
2013-03-29 20:24:00,38.7,17.0,0.00,NNW,330,0.0,0.0,41,0.00,,---,0.00,VWS V14.00,2013-03-30 02:24:00,
2013-03-29 20:25:00,38.7,17.0,0.00,WNW,295,2.7,2.7,41,0.00,,---,0.00,VWS V14.00,2013-03-30 02:25:00,
2013-03-29 20:27:00,38.7,17.0,0.00,WNW,295,0.0,0.0,41,0.00,,---,0.00,VWS V14.00,2013-03-30 02:27:00,
2013-03-29 20:28:00,38.7,17.0,0.00,WNW,295,0.0,0.0,41,0.00,,---,0.00,VWS V14.00,2013-03-30 02:28:00,
2013-03-29 20:29:00,38.7,17.0,0.00,WNW,295,0.0,0.0,41,0.00,,---,0.00,VWS V14.00,2013-03-30 02:29:00,
2013-03-29 20:30:00,38.5,16.8,0.00,ENE,72,0.0,2.2,41,0.00,,---,0.00,VWS V14.00,2013-03-30 02:30:00,
2013-03-29 20:32:00,38.5,16.8,0.00,ENE,74,0.0,0.0,41,0.00,,---,0.00,VWS V14.00,2013-03-30 02:32:00,
2013-03-29 20:33:00,38.5,16.8,0.00,ENE,62,0.0,0.0,41,0.00,,---,0.00,VWS V14.00,2013-03-30 02:33:00,
2013-03-29 20:34:00,38.5,16.8,0.00,ENE,62,0.0,0.0,41,0.00,,---,0.00,VWS V14.00,2013-03-30 02:34:00,
2013-03-29 20:35:00,38.3,16.7,0.00,NW,323,0.0,0.0,41,0.00,,---,0.00,VWS V14.00,2013-03-30 02:35:00,
2013-03-29 20:37:00,38.3,16.7,0.00,ENE,68,2.7,2.7,41,0.00,,---,0.00,VWS V14.00,2013-03-30 02:37:00,
2013-03-29 20:38:00,38.1,17.1,0.00,East,91,0.0,0.0,42,0.00,,---,0.00,VWS V14.00,2013-03-30 02:38:00,
2013-03-29 20:39:00,38.1,17.1,0.00,East,91,0.0,0.0,42,0.00,,---,0.00,VWS V14.00,2013-03-30 02:39:00,
2013-03-29 20:40:00,38.1,17.1,0.00,East,91,0.0,0.0,42,0.00,,---,0.00,VWS V14.00,2013-03-30 02:40:00,
2013-03-29 20:42:00,38.1,17.1,0.00,East,91,0.0,0.0,42,0.00,,---,0.00,VWS V14.00,2013-03-30 02:42:00,
2013-03-29 20:44:00,37.9,16.4,0.00,East,91,0.0,0.0,41,0.00,,---,0.00,VWS V14.00,2013-03-30 02:44:00,
2013-03-29 20:45:00,37.9,16.4,0.00,East,91,0.0,0.0,41,0.00,,---,0.00,VWS V14.00,2013-03-30 02:45:00,
2013-03-29 20:47:00,37.9,16.4,0.00,East,91,0.0,0.0,41,0.00,,---,0.00,VWS V14.00,2013-03-30 02:47:00,
2013-03-29 20:49:00,37.8,16.8,0.00,East,91,0.0,0.0,42,0.00,,---,0.00,VWS V14.00,2013-03-30 02:49:00,
2013-03-29 20:50:00,37.8,16.8,0.00,East,91,0.0,0.0,42,0.00,,---,0.00,VWS V14.00,2013-03-30 02:50:00,
2013-03-29 20:52:00,37.6,16.6,0.00,East,91,0.0,0.0,42,0.00,,---,0.00,VWS V14.00,2013-03-30 02:52:00,
2013-03-29 20:54:00,37.6,16.6,0.00,East,91,0.0,0.0,42,0.00,,---,0.00,VWS V14.00,2013-03-30 02:54:00,
2013-03-29 20:56:00,37.4,16.4,0.00,East,91,0.0,0.0,42,0.00,,---,0.00,VWS V14.00,2013-03-30 02:56:00,
2013-03-29 20:57:00,37.4,16.4,0.00,East,91,0.0,0.0,42,0.00,,---,0.00,VWS V14.00,2013-03-30 02:57:00,
2013-03-29 20:59:00,37.2,16.3,0.00,NW,306,0.0,3.1,42,0.00,,---,0.00,VWS V14.00,2013-03-30 02:59:00,
2013-03-29 21:01:00,37.2,16.3,0.00,WNW,291,0.0,0.0,42,0.00,,---,0.00,VWS V14.00,2013-03-30 03:01:00,
2013-03-29 21:02:00,37.0,16.6,0.00,WNW,290,0.0,0.0,43,0.00,,---,0.00,VWS V14.00,2013-03-30 03:02:00,
2013-03-29 21:04:00,37.0,16.6,0.00,West,267,0.0,0.0,43,0.00,,---,0.00,VWS V14.00,2013-03-30 03:04:00,
2013-03-29 21:05:00,37.0,16.6,0.00,West,267,0.0,0.0,43,0.00,,---,0.00,VWS V14.00,2013-03-30 03:05:00,
2013-03-29 21:06:00,37.0,16.6,0.00,West,267,0.0,0.0,43,0.00,,---,0.00,VWS V14.00,2013-03-30 03:06:00,
2013-03-29 21:07:00,36.9,16.5,0.00,West,267,0.0,0.0,43,0.00,,---,0.00,VWS V14.00,2013-03-30 03:07:00,
2013-03-29 21:09:00,36.9,16.5,0.00,West,267,0.0,0.0,43,0.00,,---,0.00,VWS V14.00,2013-03-30 03:09:00,
2013-03-29 21:10:00,36.9,16.5,0.00,West,267,0.0,0.0,43,0.00,,---,0.00,VWS V14.00,2013-03-30 03:10:00,
2013-03-29 21:11:00,36.7,16.8,0.00,WNW,300,0.0,0.0,44,0.00,,---,0.00,VWS V14.00,2013-03-30 03:11:00,
2013-03-29 21:12:00,36.7,16.8,0.00,NW,304,0.0,0.0,44,0.00,,---,0.00,VWS V14.00,2013-03-30 03:12:00,
2013-03-29 21:15:00,36.7,16.8,0.00,NW,304,0.0,0.0,44,0.00,,---,0.00,VWS V14.00,2013-03-30 03:15:00,
2013-03-29 21:16:00,36.5,16.7,0.00,NW,304,0.0,0.0,44,0.00,,---,0.00,VWS V14.00,2013-03-30 03:16:00,
2013-03-29 21:17:00,36.5,16.7,0.00,NW,304,0.0,0.0,44,0.00,,---,0.00,VWS V14.00,2013-03-30 03:17:00,
2013-03-29 21:20:00,36.5,16.7,0.00,NW,304,0.0,0.0,44,0.00,,---,0.00,VWS V14.00,2013-03-30 03:20:00,
2013-03-29 21:22:00,36.3,16.5,0.00,NW,304,0.0,0.0,44,0.00,,---,0.00,VWS V14.00,2013-03-30 03:22:00,
2013-03-29 21:23:00,36.3,16.5,0.00,NW,304,0.0,0.0,44,0.00,,---,0.00,VWS V14.00,2013-03-30 03:23:00,
2013-03-29 21:25:00,36.3,16.5,0.00,NW,304,0.0,0.0,44,0.00,,---,0.00,VWS V14.00,2013-03-30 03:25:00,
2013-03-29 21:26:00,36.1,16.4,0.00,NW,304,0.0,0.0,44,0.00,,---,0.00,VWS V14.00,2013-03-30 03:26:00,
2013-03-29 21:28:00,36.1,16.4,0.00,NW,304,0.0,0.0,44,0.00,,---,0.00,VWS V14.00,2013-03-30 03:28:00,
2013-03-29 21:30:00,36.1,16.4,0.00,NW,304,0.0,0.0,44,0.00,,---,0.00,VWS V14.00,2013-03-30 03:30:00,
2013-03-29 21:31:00,36.0,16.2,0.00,NW,304,0.0,0.0,44,0.00,,---,0.00,VWS V14.00,2013-03-30 03:31:00,
2013-03-29 21:32:00,36.0,16.2,0.00,NW,304,0.0,0.0,44,0.00,,---,0.00,VWS V14.00,2013-03-30 03:32:00,
2013-03-29 21:33:00,36.0,16.2,0.00,NW,304,0.0,0.0,44,0.00,,---,0.00,VWS V14.00,2013-03-30 03:33:00,
2013-03-29 21:35:00,35.8,16.0,0.00,NW,304,0.0,0.0,44,0.00,,---,0.00,VWS V14.00,2013-03-30 03:35:00,
2013-03-29 21:36:00,35.8,16.0,0.00,NW,304,0.0,0.0,44,0.00,,---,0.00,VWS V14.00,2013-03-30 03:36:00,
2013-03-29 21:37:00,35.8,16.0,0.00,NW,304,0.0,0.0,44,0.00,,---,0.00,VWS V14.00,2013-03-30 03:37:00,
2013-03-29 21:38:00,35.8,16.0,0.00,NW,305,0.0,0.0,44,0.00,,---,0.00,VWS V14.00,2013-03-30 03:38:00,
2013-03-29 21:40:00,35.6,15.9,0.00,NW,304,0.0,0.0,44,0.00,,---,0.00,VWS V14.00,2013-03-30 03:40:00,
2013-03-29 21:41:00,35.6,15.9,0.00,NW,304,0.0,0.0,44,0.00,,---,0.00,VWS V14.00,2013-03-30 03:41:00,
2013-03-29 21:43:00,35.6,15.9,0.00,NW,304,0.0,0.0,44,0.00,,---,0.00,VWS V14.00,2013-03-30 03:43:00,
2013-03-29 21:44:00,35.6,15.9,0.00,NW,304,0.0,0.0,44,0.00,,---,0.00,VWS V14.00,2013-03-30 03:44:00,
2013-03-29 21:45:00,35.4,16.2,0.00,NW,304,0.0,0.0,45,0.00,,---,0.00,VWS V14.00,2013-03-30 03:45:00,
2013-03-29 21:46:00,35.4,16.2,0.00,WNW,301,0.0,0.0,45,0.00,,---,0.00,VWS V14.00,2013-03-30 03:46:00,
2013-03-29 21:48:00,35.4,16.2,0.00,NW,304,0.0,0.0,45,0.00,,---,0.00,VWS V14.00,2013-03-30 03:48:00,
2013-03-29 21:49:00,35.4,16.2,0.00,NW,304,0.0,0.0,45,0.00,,---,0.00,VWS V14.00,2013-03-30 03:49:00,
2013-03-29 21:50:00,35.4,16.2,0.00,NW,304,0.0,0.0,45,0.00,,---,0.00,VWS V14.00,2013-03-30 03:50:00,
2013-03-29 21:52:00,35.2,16.0,0.00,NW,304,0.0,0.0,45,0.00,,---,0.00,VWS V14.00,2013-03-30 03:52:00,
2013-03-29 21:53:00,35.2,16.0,0.00,NW,304,0.0,0.0,45,0.00,,---,0.00,VWS V14.00,2013-03-30 03:53:00,
2013-03-29 21:54:00,35.1,15.9,0.00,NW,304,0.0,0.0,45,0.00,,---,0.00,VWS V14.00,2013-03-30 03:54:00,
2013-03-29 21:55:00,35.1,15.9,0.00,WNW,295,0.0,0.0,45,0.00,,---,0.00,VWS V14.00,2013-03-30 03:55:00,
2013-03-29 21:57:00,35.1,15.9,0.00,WNW,301,0.0,0.0,45,0.00,,---,0.00,VWS V14.00,2013-03-30 03:57:00,
2013-03-29 21:58:00,35.1,16.4,0.00,NW,304,0.0,0.0,46,0.00,,---,0.00,VWS V14.00,2013-03-30 03:58:00,
2013-03-29 21:59:00,35.1,16.4,0.00,NW,304,0.0,0.0,46,0.00,,---,0.00,VWS V14.00,2013-03-30 03:59:00,
2013-03-29 22:00:00,35.1,16.4,0.00,NW,304,0.0,0.0,46,0.00,,---,0.00,VWS V14.00,2013-03-30 04:00:00,
2013-03-29 22:05:00,34.7,16.0,0.00,NW,304,0.0,0.0,46,0.00,,---,0.00,VWS V14.00,2013-03-30 04:05:00,
2013-03-29 22:10:00,34.5,16.4,0.00,NW,304,0.0,0.0,47,0.00,,---,0.00,VWS V14.00,2013-03-30 04:10:00,
2013-03-29 22:15:00,34.3,16.7,0.00,NW,304,0.0,0.0,48,0.00,,---,0.00,VWS V14.00,2013-03-30 04:15:00,
2013-03-29 22:20:00,34.2,16.5,0.00,NW,304,0.0,0.0,48,0.00,,---,0.00,VWS V14.00,2013-03-30 04:20:00,
2013-03-29 22:25:00,34.0,16.8,0.00,NW,304,0.0,0.0,49,0.00,,---,0.00,VWS V14.00,2013-03-30 04:25:00,
2013-03-29 22:30:00,33.8,16.7,0.00,NW,304,0.0,0.0,49,0.00,,---,0.00,VWS V14.00,2013-03-30 04:30:00,
2013-03-29 22:35:00,33.6,17.0,0.00,NW,304,0.0,0.0,50,0.00,,---,0.00,VWS V14.00,2013-03-30 04:35:00,
2013-03-29 22:40:00,33.4,16.8,0.00,WNW,289,0.0,0.0,50,0.00,,---,0.00,VWS V14.00,2013-03-30 04:40:00,
2013-03-29 22:41:00,33.4,16.8,0.00,WNW,289,0.0,0.0,50,0.00,,---,0.00,VWS V14.00,2013-03-30 04:41:00,
2013-03-29 22:45:00,33.3,16.6,0.00,WNW,289,0.0,0.0,50,0.00,,---,0.00,VWS V14.00,2013-03-30 04:45:00,
2013-03-29 22:46:00,33.3,16.6,0.00,West,274,0.0,0.0,50,0.00,,---,0.00,VWS V14.00,2013-03-30 04:46:00,
2013-03-29 22:50:00,33.3,17.1,0.00,SSW,207,0.0,0.0,51,0.00,,---,0.00,VWS V14.00,2013-03-30 04:50:00,
2013-03-29 22:51:00,33.3,17.1,0.00,SSW,207,0.0,0.0,51,0.00,,---,0.00,VWS V14.00,2013-03-30 04:51:00,
2013-03-29 22:55:00,33.1,16.9,0.00,SSW,203,0.0,0.0,51,0.00,,---,0.00,VWS V14.00,2013-03-30 04:55:00,
2013-03-29 22:56:00,33.1,16.9,0.00,SSW,207,0.0,0.0,51,0.00,,---,0.00,VWS V14.00,2013-03-30 04:56:00,
2013-03-29 23:00:00,33.1,16.9,0.00,SSW,205,0.0,0.0,51,0.00,,---,0.00,VWS V14.00,2013-03-30 05:00:00,
2013-03-29 23:01:00,33.1,16.9,0.00,SSW,207,0.0,0.0,51,0.00,,---,0.00,VWS V14.00,2013-03-30 05:01:00,
2013-03-29 23:05:00,32.9,16.8,0.00,SW,214,0.0,0.0,51,0.00,,---,0.00,VWS V14.00,2013-03-30 05:05:00,
2013-03-29 23:06:00,32.9,16.8,0.00,SSW,213,0.0,0.0,51,0.00,,---,0.00,VWS V14.00,2013-03-30 05:06:00,
2013-03-29 23:10:00,32.7,17.0,0.00,SW,215,0.0,0.0,52,0.00,,---,0.00,VWS V14.00,2013-03-30 05:10:00,
2013-03-29 23:11:00,32.7,17.0,0.00,SW,215,0.0,0.0,52,0.00,,---,0.00,VWS V14.00,2013-03-30 05:11:00,
2013-03-29 23:15:00,32.7,17.0,0.00,SW,214,0.0,0.0,52,0.00,,---,0.00,VWS V14.00,2013-03-30 05:15:00,
2013-03-29 23:16:00,32.7,17.0,0.00,SW,215,0.0,0.0,52,0.00,,---,0.00,VWS V14.00,2013-03-30 05:16:00,
2013-03-29 23:17:00,32.7,17.0,0.00,SW,216,0.0,0.0,52,0.00,,---,0.00,VWS V14.00,2013-03-30 05:17:00,
2013-03-29 23:20:00,32.7,17.0,0.00,SW,215,0.0,0.0,52,0.00,,---,0.00,VWS V14.00,2013-03-30 05:20:00,
2013-03-29 23:21:00,32.7,17.0,0.00,SW,215,0.0,0.0,52,0.00,,---,0.00,VWS V14.00,2013-03-30 05:21:00,
2013-03-29 23:22:00,32.5,16.9,0.00,SW,215,0.0,0.0,52,0.00,,---,0.00,VWS V14.00,2013-03-30 05:22:00,
2013-03-29 23:25:00,32.5,16.9,0.00,SW,215,0.0,0.0,52,0.00,,---,0.00,VWS V14.00,2013-03-30 05:25:00,
2013-03-29 23:26:00,32.5,16.9,0.00,SW,215,0.0,0.0,52,0.00,,---,0.00,VWS V14.00,2013-03-30 05:26:00,
2013-03-29 23:27:00,32.5,16.9,0.00,SW,215,0.0,0.0,52,0.00,,---,0.00,VWS V14.00,2013-03-30 05:27:00,
2013-03-29 23:30:00,32.5,16.9,0.00,SW,215,0.0,0.0,52,0.00,,---,0.00,VWS V14.00,2013-03-30 05:30:00,
2013-03-29 23:31:00,32.5,16.9,0.00,SW,215,0.0,0.0,52,0.00,,---,0.00,VWS V14.00,2013-03-30 05:31:00,
2013-03-29 23:32:00,32.5,16.9,0.00,SW,215,0.0,0.0,52,0.00,,---,0.00,VWS V14.00,2013-03-30 05:32:00,
2013-03-29 23:36:00,32.5,16.9,0.00,SSW,213,0.0,0.0,52,0.00,,---,0.00,VWS V14.00,2013-03-30 05:36:00,
2013-03-29 23:37:00,32.5,17.3,0.00,SSW,213,0.0,0.0,53,0.00,,---,0.00,VWS V14.00,2013-03-30 05:37:00,
2013-03-29 23:38:00,32.5,17.3,0.00,SSW,211,0.0,0.0,53,0.00,,---,0.00,VWS V14.00,2013-03-30 05:38:00,
2013-03-29 23:41:00,32.5,16.9,0.00,SSW,208,0.0,0.0,52,0.00,,---,0.00,VWS V14.00,2013-03-30 05:41:00,
2013-03-29 23:42:00,32.5,16.9,0.00,SW,214,0.0,0.0,52,0.00,,---,0.00,VWS V14.00,2013-03-30 05:42:00,
2013-03-29 23:43:00,32.5,16.9,0.00,SW,215,0.0,0.0,52,0.00,,---,0.00,VWS V14.00,2013-03-30 05:43:00,
2013-03-29 23:46:00,32.4,17.1,0.00,SW,215,0.0,0.0,53,0.00,,---,0.00,VWS V14.00,2013-03-30 05:46:00,
2013-03-29 23:48:00,32.4,17.1,0.00,SW,215,0.0,0.0,53,0.00,,---,0.00,VWS V14.00,2013-03-30 05:48:00,
2013-03-29 23:51:00,32.4,17.1,0.00,SW,215,0.0,0.0,53,0.00,,---,0.00,VWS V14.00,2013-03-30 05:51:00,
2013-03-29 23:53:00,32.4,17.1,0.00,SW,215,0.0,0.0,53,0.00,,---,0.00,VWS V14.00,2013-03-30 05:53:00,
2013-03-29 23:56:00,32.4,17.1,0.00,SSW,196,0.0,0.0,53,0.00,,---,0.00,VWS V14.00,2013-03-30 05:56:00,
2013-03-29 23:57:00,32.4,17.1,0.00,SSW,196,0.0,0.0,53,0.00,,---,0.00,VWS V14.00,2013-03-30 05:57:00,
2013-03-29 23:58:00,32.4,17.1,0.00,ESE,102,3.6,3.6,53,0.00,,---,0.00,VWS V14.00,2013-03-30 05:58:00,